<?xml version="1.0" encoding="UTF-8" standalone="no" ?>
<gpx xmlns="http://www.topografix.com/GPX/1/1" xmlns:xsi="http://www.w3.org/2001/XMLSchema-instance" xsi:schemaLocation="http://www.topografix.com/GPX/1/1 http://www.topografix.com/GPX/1/1/gpx.xsd" version="1.1" creator="VisuGPX - https://www.visugpx.com">
  <metadata>
    <name>2021-01-23 circuit des calvaires</name>
  </metadata>
  <trk>
    <name><![CDATA[2021-01-23 09:53:51]]></name>
    <trkseg>
      <trkpt lat="49.08715" lon="6.69363">
        <ele>227.01</ele>
        <time>2021-01-23T06:14:28Z</time>
      </trkpt>
      <trkpt lat="49.08715" lon="6.69363">
        <ele>227.01</ele>
        <time>2021-01-23T06:14:29Z</time>
      </trkpt>
      <trkpt lat="49.08716" lon="6.69364">
        <ele>297.18</ele>
        <time>2021-01-23T06:14:35Z</time>
      </trkpt>
      <trkpt lat="49.08715" lon="6.69364">
        <ele>297.18</ele>
        <time>2021-01-23T06:14:36Z</time>
      </trkpt>
      <trkpt lat="49.08717" lon="6.69367">
        <ele>296.7</ele>
        <time>2021-01-23T06:14:45Z</time>
      </trkpt>
      <trkpt lat="49.08719" lon="6.69366">
        <ele>297.18</ele>
        <time>2021-01-23T06:14:48Z</time>
      </trkpt>
      <trkpt lat="49.08733" lon="6.69335">
        <ele>296.7</ele>
        <time>2021-01-23T06:15:07Z</time>
      </trkpt>
      <trkpt lat="49.0875" lon="6.69311">
        <ele>296.7</ele>
        <time>2021-01-23T06:15:27Z</time>
      </trkpt>
      <trkpt lat="49.08771" lon="6.69285">
        <ele>298.15</ele>
        <time>2021-01-23T06:15:46Z</time>
      </trkpt>
      <trkpt lat="49.08798" lon="6.6926">
        <ele>298.63</ele>
        <time>2021-01-23T06:16:07Z</time>
      </trkpt>
      <trkpt lat="49.08821" lon="6.69237">
        <ele>299.59</ele>
        <time>2021-01-23T06:16:27Z</time>
      </trkpt>
      <trkpt lat="49.0884" lon="6.69218">
        <ele>302.95</ele>
        <time>2021-01-23T06:16:43Z</time>
      </trkpt>
      <trkpt lat="49.08866" lon="6.69192">
        <ele>304.39</ele>
        <time>2021-01-23T06:17:05Z</time>
      </trkpt>
      <trkpt lat="49.08886" lon="6.69173">
        <ele>307.28</ele>
        <time>2021-01-23T06:17:22Z</time>
      </trkpt>
      <trkpt lat="49.08907" lon="6.69149">
        <ele>308.72</ele>
        <time>2021-01-23T06:17:41Z</time>
      </trkpt>
      <trkpt lat="49.0893" lon="6.69127">
        <ele>312.09</ele>
        <time>2021-01-23T06:18:00Z</time>
      </trkpt>
      <trkpt lat="49.08952" lon="6.69106">
        <ele>314.97</ele>
        <time>2021-01-23T06:18:19Z</time>
      </trkpt>
      <trkpt lat="49.08974" lon="6.69076">
        <ele>316.89</ele>
        <time>2021-01-23T06:18:40Z</time>
      </trkpt>
      <trkpt lat="49.08991" lon="6.69046">
        <ele>317.85</ele>
        <time>2021-01-23T06:18:58Z</time>
      </trkpt>
      <trkpt lat="49.09007" lon="6.69019">
        <ele>320.74</ele>
        <time>2021-01-23T06:19:15Z</time>
      </trkpt>
      <trkpt lat="49.09031" lon="6.68988">
        <ele>323.14</ele>
        <time>2021-01-23T06:19:39Z</time>
      </trkpt>
      <trkpt lat="49.09037" lon="6.68978">
        <ele>323.62</ele>
        <time>2021-01-23T06:19:44Z</time>
      </trkpt>
      <trkpt lat="49.0905" lon="6.68952">
        <ele>325.06</ele>
        <time>2021-01-23T06:20:00Z</time>
      </trkpt>
      <trkpt lat="49.09071" lon="6.68922">
        <ele>326.99</ele>
        <time>2021-01-23T06:20:20Z</time>
      </trkpt>
      <trkpt lat="49.09087" lon="6.68901">
        <ele>329.87</ele>
        <time>2021-01-23T06:20:35Z</time>
      </trkpt>
      <trkpt lat="49.09115" lon="6.68879">
        <ele>330.83</ele>
        <time>2021-01-23T06:20:58Z</time>
      </trkpt>
      <trkpt lat="49.0914" lon="6.68857">
        <ele>333.71</ele>
        <time>2021-01-23T06:21:19Z</time>
      </trkpt>
      <trkpt lat="49.09156" lon="6.68848">
        <ele>335.16</ele>
        <time>2021-01-23T06:21:33Z</time>
      </trkpt>
      <trkpt lat="49.09181" lon="6.68831">
        <ele>336.6</ele>
        <time>2021-01-23T06:21:54Z</time>
      </trkpt>
      <trkpt lat="49.09203" lon="6.68808">
        <ele>339.48</ele>
        <time>2021-01-23T06:22:15Z</time>
      </trkpt>
      <trkpt lat="49.09226" lon="6.68778">
        <ele>340.44</ele>
        <time>2021-01-23T06:22:38Z</time>
      </trkpt>
      <trkpt lat="49.09241" lon="6.68758">
        <ele>342.85</ele>
        <time>2021-01-23T06:22:55Z</time>
      </trkpt>
      <trkpt lat="49.0926" lon="6.68734">
        <ele>342.85</ele>
        <time>2021-01-23T06:23:15Z</time>
      </trkpt>
      <trkpt lat="49.0928" lon="6.68708">
        <ele>346.69</ele>
        <time>2021-01-23T06:23:36Z</time>
      </trkpt>
      <trkpt lat="49.09287" lon="6.68701">
        <ele>346.69</ele>
        <time>2021-01-23T06:23:43Z</time>
      </trkpt>
      <trkpt lat="49.09299" lon="6.68692">
        <ele>347.65</ele>
        <time>2021-01-23T06:23:55Z</time>
      </trkpt>
      <trkpt lat="49.09328" lon="6.68669">
        <ele>350.54</ele>
        <time>2021-01-23T06:24:21Z</time>
      </trkpt>
      <trkpt lat="49.09349" lon="6.68645">
        <ele>351.5</ele>
        <time>2021-01-23T06:24:40Z</time>
      </trkpt>
      <trkpt lat="49.0937" lon="6.68615">
        <ele>352.46</ele>
        <time>2021-01-23T06:25:03Z</time>
      </trkpt>
      <trkpt lat="49.09376" lon="6.68606">
        <ele>353.9</ele>
        <time>2021-01-23T06:25:10Z</time>
      </trkpt>
      <trkpt lat="49.09379" lon="6.686">
        <ele>354.86</ele>
        <time>2021-01-23T06:25:14Z</time>
      </trkpt>
      <trkpt lat="49.09382" lon="6.68594">
        <ele>355.34</ele>
        <time>2021-01-23T06:25:18Z</time>
      </trkpt>
      <trkpt lat="49.09398" lon="6.68572">
        <ele>357.27</ele>
        <time>2021-01-23T06:25:35Z</time>
      </trkpt>
      <trkpt lat="49.09406" lon="6.68559">
        <ele>360.63</ele>
        <time>2021-01-23T06:25:45Z</time>
      </trkpt>
      <trkpt lat="49.09423" lon="6.68536">
        <ele>361.59</ele>
        <time>2021-01-23T06:26:01Z</time>
      </trkpt>
      <trkpt lat="49.09439" lon="6.68516">
        <ele>361.11</ele>
        <time>2021-01-23T06:26:16Z</time>
      </trkpt>
      <trkpt lat="49.09461" lon="6.68495">
        <ele>357.75</ele>
        <time>2021-01-23T06:26:32Z</time>
      </trkpt>
      <trkpt lat="49.09477" lon="6.68478">
        <ele>355.34</ele>
        <time>2021-01-23T06:26:46Z</time>
      </trkpt>
      <trkpt lat="49.09496" lon="6.68451">
        <ele>351.98</ele>
        <time>2021-01-23T06:27:04Z</time>
      </trkpt>
      <trkpt lat="49.09509" lon="6.68421">
        <ele>350.06</ele>
        <time>2021-01-23T06:27:21Z</time>
      </trkpt>
      <trkpt lat="49.09516" lon="6.68392">
        <ele>347.17</ele>
        <time>2021-01-23T06:27:35Z</time>
      </trkpt>
      <trkpt lat="49.09523" lon="6.68356">
        <ele>344.77</ele>
        <time>2021-01-23T06:27:53Z</time>
      </trkpt>
      <trkpt lat="49.09525" lon="6.68324">
        <ele>341.89</ele>
        <time>2021-01-23T06:28:10Z</time>
      </trkpt>
      <trkpt lat="49.09533" lon="6.68299">
        <ele>338.52</ele>
        <time>2021-01-23T06:28:22Z</time>
      </trkpt>
      <trkpt lat="49.09544" lon="6.68267">
        <ele>335.64</ele>
        <time>2021-01-23T06:28:37Z</time>
      </trkpt>
      <trkpt lat="49.09553" lon="6.68238">
        <ele>332.27</ele>
        <time>2021-01-23T06:28:51Z</time>
      </trkpt>
      <trkpt lat="49.09561" lon="6.68205">
        <ele>330.83</ele>
        <time>2021-01-23T06:29:07Z</time>
      </trkpt>
      <trkpt lat="49.09555" lon="6.68161">
        <ele>330.35</ele>
        <time>2021-01-23T06:29:27Z</time>
      </trkpt>
      <trkpt lat="49.09542" lon="6.68115">
        <ele>330.83</ele>
        <time>2021-01-23T06:29:49Z</time>
      </trkpt>
      <trkpt lat="49.09531" lon="6.68077">
        <ele>331.79</ele>
        <time>2021-01-23T06:30:07Z</time>
      </trkpt>
      <trkpt lat="49.09519" lon="6.68039">
        <ele>333.71</ele>
        <time>2021-01-23T06:30:26Z</time>
      </trkpt>
      <trkpt lat="49.09505" lon="6.67995">
        <ele>332.27</ele>
        <time>2021-01-23T06:30:47Z</time>
      </trkpt>
      <trkpt lat="49.09492" lon="6.67957">
        <ele>330.83</ele>
        <time>2021-01-23T06:31:06Z</time>
      </trkpt>
      <trkpt lat="49.09475" lon="6.67916">
        <ele>331.79</ele>
        <time>2021-01-23T06:31:28Z</time>
      </trkpt>
      <trkpt lat="49.0946" lon="6.67888">
        <ele>333.71</ele>
        <time>2021-01-23T06:31:44Z</time>
      </trkpt>
      <trkpt lat="49.09449" lon="6.67854">
        <ele>332.75</ele>
        <time>2021-01-23T06:32:00Z</time>
      </trkpt>
      <trkpt lat="49.09437" lon="6.67811">
        <ele>333.71</ele>
        <time>2021-01-23T06:32:20Z</time>
      </trkpt>
      <trkpt lat="49.09428" lon="6.67768">
        <ele>333.23</ele>
        <time>2021-01-23T06:32:41Z</time>
      </trkpt>
      <trkpt lat="49.09425" lon="6.67741">
        <ele>332.75</ele>
        <time>2021-01-23T06:32:55Z</time>
      </trkpt>
      <trkpt lat="49.09421" lon="6.67718">
        <ele>333.23</ele>
        <time>2021-01-23T06:33:07Z</time>
      </trkpt>
      <trkpt lat="49.09416" lon="6.67688">
        <ele>333.71</ele>
        <time>2021-01-23T06:33:21Z</time>
      </trkpt>
      <trkpt lat="49.09415" lon="6.67667">
        <ele>333.71</ele>
        <time>2021-01-23T06:33:31Z</time>
      </trkpt>
      <trkpt lat="49.09409" lon="6.67631">
        <ele>333.71</ele>
        <time>2021-01-23T06:33:46Z</time>
      </trkpt>
      <trkpt lat="49.09404" lon="6.676">
        <ele>333.23</ele>
        <time>2021-01-23T06:33:59Z</time>
      </trkpt>
      <trkpt lat="49.094" lon="6.67572">
        <ele>332.75</ele>
        <time>2021-01-23T06:34:13Z</time>
      </trkpt>
      <trkpt lat="49.09396" lon="6.6754">
        <ele>332.75</ele>
        <time>2021-01-23T06:34:27Z</time>
      </trkpt>
      <trkpt lat="49.0939" lon="6.67503">
        <ele>332.75</ele>
        <time>2021-01-23T06:34:43Z</time>
      </trkpt>
      <trkpt lat="49.09386" lon="6.67457">
        <ele>334.68</ele>
        <time>2021-01-23T06:35:02Z</time>
      </trkpt>
      <trkpt lat="49.09391" lon="6.67415">
        <ele>333.71</ele>
        <time>2021-01-23T06:35:21Z</time>
      </trkpt>
      <trkpt lat="49.09404" lon="6.67373">
        <ele>330.83</ele>
        <time>2021-01-23T06:35:42Z</time>
      </trkpt>
      <trkpt lat="49.09419" lon="6.67346">
        <ele>327.47</ele>
        <time>2021-01-23T06:35:58Z</time>
      </trkpt>
      <trkpt lat="49.09429" lon="6.67306">
        <ele>325.54</ele>
        <time>2021-01-23T06:36:17Z</time>
      </trkpt>
      <trkpt lat="49.09441" lon="6.67269">
        <ele>323.62</ele>
        <time>2021-01-23T06:36:35Z</time>
      </trkpt>
      <trkpt lat="49.09449" lon="6.67224">
        <ele>320.26</ele>
        <time>2021-01-23T06:36:56Z</time>
      </trkpt>
      <trkpt lat="49.09457" lon="6.67174">
        <ele>316.89</ele>
        <time>2021-01-23T06:37:19Z</time>
      </trkpt>
      <trkpt lat="49.09479" lon="6.67131">
        <ele>314.49</ele>
        <time>2021-01-23T06:37:44Z</time>
      </trkpt>
      <trkpt lat="49.09501" lon="6.67113">
        <ele>311.6</ele>
        <time>2021-01-23T06:38:02Z</time>
      </trkpt>
      <trkpt lat="49.09526" lon="6.67087">
        <ele>309.68</ele>
        <time>2021-01-23T06:38:22Z</time>
      </trkpt>
      <trkpt lat="49.09539" lon="6.67051">
        <ele>308.24</ele>
        <time>2021-01-23T06:38:40Z</time>
      </trkpt>
      <trkpt lat="49.09551" lon="6.67008">
        <ele>305.36</ele>
        <time>2021-01-23T06:39:01Z</time>
      </trkpt>
      <trkpt lat="49.09566" lon="6.66959">
        <ele>303.43</ele>
        <time>2021-01-23T06:39:25Z</time>
      </trkpt>
      <trkpt lat="49.09577" lon="6.66925">
        <ele>300.07</ele>
        <time>2021-01-23T06:39:42Z</time>
      </trkpt>
      <trkpt lat="49.09585" lon="6.66893">
        <ele>296.7</ele>
        <time>2021-01-23T06:39:58Z</time>
      </trkpt>
      <trkpt lat="49.09591" lon="6.66865">
        <ele>293.34</ele>
        <time>2021-01-23T06:40:11Z</time>
      </trkpt>
      <trkpt lat="49.09601" lon="6.66828">
        <ele>289.49</ele>
        <time>2021-01-23T06:40:29Z</time>
      </trkpt>
      <trkpt lat="49.09615" lon="6.66787">
        <ele>287.09</ele>
        <time>2021-01-23T06:40:50Z</time>
      </trkpt>
      <trkpt lat="49.09628" lon="6.6676">
        <ele>284.21</ele>
        <time>2021-01-23T06:41:05Z</time>
      </trkpt>
      <trkpt lat="49.09638" lon="6.66734">
        <ele>280.84</ele>
        <time>2021-01-23T06:41:19Z</time>
      </trkpt>
      <trkpt lat="49.09637" lon="6.66718">
        <ele>279.4</ele>
        <time>2021-01-23T06:41:26Z</time>
      </trkpt>
      <trkpt lat="49.09619" lon="6.66695">
        <ele>276.52</ele>
        <time>2021-01-23T06:41:42Z</time>
      </trkpt>
      <trkpt lat="49.09602" lon="6.66671">
        <ele>273.63</ele>
        <time>2021-01-23T06:41:58Z</time>
      </trkpt>
      <trkpt lat="49.09586" lon="6.66645">
        <ele>272.19</ele>
        <time>2021-01-23T06:42:13Z</time>
      </trkpt>
      <trkpt lat="49.09572" lon="6.66616">
        <ele>271.23</ele>
        <time>2021-01-23T06:42:29Z</time>
      </trkpt>
      <trkpt lat="49.09564" lon="6.66584">
        <ele>272.19</ele>
        <time>2021-01-23T06:42:45Z</time>
      </trkpt>
      <trkpt lat="49.0956" lon="6.66552">
        <ele>271.71</ele>
        <time>2021-01-23T06:43:01Z</time>
      </trkpt>
      <trkpt lat="49.09555" lon="6.66528">
        <ele>271.71</ele>
        <time>2021-01-23T06:43:13Z</time>
      </trkpt>
      <trkpt lat="49.09556" lon="6.66513">
        <ele>270.75</ele>
        <time>2021-01-23T06:43:20Z</time>
      </trkpt>
      <trkpt lat="49.09558" lon="6.6651">
        <ele>273.63</ele>
        <time>2021-01-23T06:43:22Z</time>
      </trkpt>
      <trkpt lat="49.09561" lon="6.66505">
        <ele>269.31</ele>
        <time>2021-01-23T06:43:25Z</time>
      </trkpt>
      <trkpt lat="49.09585" lon="6.66497">
        <ele>268.35</ele>
        <time>2021-01-23T06:43:41Z</time>
      </trkpt>
      <trkpt lat="49.09595" lon="6.66494">
        <ele>267.38</ele>
        <time>2021-01-23T06:43:49Z</time>
      </trkpt>
      <trkpt lat="49.09621" lon="6.66489">
        <ele>264.98</ele>
        <time>2021-01-23T06:44:08Z</time>
      </trkpt>
      <trkpt lat="49.09645" lon="6.66476">
        <ele>262.58</ele>
        <time>2021-01-23T06:44:27Z</time>
      </trkpt>
      <trkpt lat="49.0966" lon="6.66462">
        <ele>262.1</ele>
        <time>2021-01-23T06:44:41Z</time>
      </trkpt>
      <trkpt lat="49.09679" lon="6.66436">
        <ele>260.65</ele>
        <time>2021-01-23T06:44:59Z</time>
      </trkpt>
      <trkpt lat="49.09689" lon="6.66407">
        <ele>260.17</ele>
        <time>2021-01-23T06:45:14Z</time>
      </trkpt>
      <trkpt lat="49.09699" lon="6.66374">
        <ele>260.17</ele>
        <time>2021-01-23T06:45:32Z</time>
      </trkpt>
      <trkpt lat="49.09703" lon="6.6636">
        <ele>260.65</ele>
        <time>2021-01-23T06:45:45Z</time>
      </trkpt>
      <trkpt lat="49.09716" lon="6.66321">
        <ele>260.65</ele>
        <time>2021-01-23T06:46:05Z</time>
      </trkpt>
      <trkpt lat="49.09724" lon="6.66276">
        <ele>259.69</ele>
        <time>2021-01-23T06:46:25Z</time>
      </trkpt>
      <trkpt lat="49.09717" lon="6.66227">
        <ele>259.69</ele>
        <time>2021-01-23T06:46:47Z</time>
      </trkpt>
      <trkpt lat="49.09696" lon="6.66193">
        <ele>259.69</ele>
        <time>2021-01-23T06:47:08Z</time>
      </trkpt>
      <trkpt lat="49.09673" lon="6.66159">
        <ele>260.65</ele>
        <time>2021-01-23T06:47:30Z</time>
      </trkpt>
      <trkpt lat="49.09653" lon="6.66122">
        <ele>261.14</ele>
        <time>2021-01-23T06:47:52Z</time>
      </trkpt>
      <trkpt lat="49.09646" lon="6.66083">
        <ele>261.14</ele>
        <time>2021-01-23T06:48:11Z</time>
      </trkpt>
      <trkpt lat="49.09649" lon="6.6604">
        <ele>260.65</ele>
        <time>2021-01-23T06:48:30Z</time>
      </trkpt>
      <trkpt lat="49.0965" lon="6.66025">
        <ele>262.58</ele>
        <time>2021-01-23T06:48:37Z</time>
      </trkpt>
      <trkpt lat="49.0965" lon="6.65976">
        <ele>264.02</ele>
        <time>2021-01-23T06:49:00Z</time>
      </trkpt>
      <trkpt lat="49.09627" lon="6.65957">
        <ele>264.98</ele>
        <time>2021-01-23T06:49:17Z</time>
      </trkpt>
      <trkpt lat="49.096" lon="6.65925">
        <ele>266.42</ele>
        <time>2021-01-23T06:49:41Z</time>
      </trkpt>
      <trkpt lat="49.09584" lon="6.65898">
        <ele>267.38</ele>
        <time>2021-01-23T06:49:58Z</time>
      </trkpt>
      <trkpt lat="49.09575" lon="6.65871">
        <ele>267.86</ele>
        <time>2021-01-23T06:50:13Z</time>
      </trkpt>
      <trkpt lat="49.09559" lon="6.6583">
        <ele>269.79</ele>
        <time>2021-01-23T06:50:33Z</time>
      </trkpt>
      <trkpt lat="49.09547" lon="6.65793">
        <ele>270.75</ele>
        <time>2021-01-23T06:50:51Z</time>
      </trkpt>
      <trkpt lat="49.09536" lon="6.65758">
        <ele>272.67</ele>
        <time>2021-01-23T06:51:10Z</time>
      </trkpt>
      <trkpt lat="49.09521" lon="6.65726">
        <ele>274.11</ele>
        <time>2021-01-23T06:51:27Z</time>
      </trkpt>
      <trkpt lat="49.09514" lon="6.65711">
        <ele>276.04</ele>
        <time>2021-01-23T06:51:36Z</time>
      </trkpt>
      <trkpt lat="49.09509" lon="6.65701">
        <ele>276.04</ele>
        <time>2021-01-23T06:51:42Z</time>
      </trkpt>
      <trkpt lat="49.09496" lon="6.65678">
        <ele>277</ele>
        <time>2021-01-23T06:51:56Z</time>
      </trkpt>
      <trkpt lat="49.09485" lon="6.65648">
        <ele>278.44</ele>
        <time>2021-01-23T06:52:10Z</time>
      </trkpt>
      <trkpt lat="49.09473" lon="6.65612">
        <ele>280.36</ele>
        <time>2021-01-23T06:52:28Z</time>
      </trkpt>
      <trkpt lat="49.09458" lon="6.65577">
        <ele>283.73</ele>
        <time>2021-01-23T06:52:46Z</time>
      </trkpt>
      <trkpt lat="49.09443" lon="6.65537">
        <ele>284.21</ele>
        <time>2021-01-23T06:53:06Z</time>
      </trkpt>
      <trkpt lat="49.09433" lon="6.65504">
        <ele>287.09</ele>
        <time>2021-01-23T06:53:23Z</time>
      </trkpt>
      <trkpt lat="49.09421" lon="6.65472">
        <ele>288.53</ele>
        <time>2021-01-23T06:53:38Z</time>
      </trkpt>
      <trkpt lat="49.0942" lon="6.65466">
        <ele>288.53</ele>
        <time>2021-01-23T06:53:41Z</time>
      </trkpt>
      <trkpt lat="49.09418" lon="6.65454">
        <ele>289.49</ele>
        <time>2021-01-23T06:53:46Z</time>
      </trkpt>
      <trkpt lat="49.09407" lon="6.65416">
        <ele>292.38</ele>
        <time>2021-01-23T06:54:05Z</time>
      </trkpt>
      <trkpt lat="49.09401" lon="6.65386">
        <ele>293.82</ele>
        <time>2021-01-23T06:54:20Z</time>
      </trkpt>
      <trkpt lat="49.09392" lon="6.65346">
        <ele>296.22</ele>
        <time>2021-01-23T06:54:39Z</time>
      </trkpt>
      <trkpt lat="49.09384" lon="6.6531">
        <ele>299.59</ele>
        <time>2021-01-23T06:54:56Z</time>
      </trkpt>
      <trkpt lat="49.09381" lon="6.65295">
        <ele>301.03</ele>
        <time>2021-01-23T06:55:03Z</time>
      </trkpt>
      <trkpt lat="49.09371" lon="6.65255">
        <ele>303.91</ele>
        <time>2021-01-23T06:55:21Z</time>
      </trkpt>
      <trkpt lat="49.09371" lon="6.65252">
        <ele>304.39</ele>
        <time>2021-01-23T06:55:22Z</time>
      </trkpt>
      <trkpt lat="49.09362" lon="6.65214">
        <ele>307.28</ele>
        <time>2021-01-23T06:55:40Z</time>
      </trkpt>
      <trkpt lat="49.09356" lon="6.65178">
        <ele>309.68</ele>
        <time>2021-01-23T06:55:57Z</time>
      </trkpt>
      <trkpt lat="49.09358" lon="6.65143">
        <ele>312.57</ele>
        <time>2021-01-23T06:56:13Z</time>
      </trkpt>
      <trkpt lat="49.09366" lon="6.65119">
        <ele>315.93</ele>
        <time>2021-01-23T06:56:25Z</time>
      </trkpt>
      <trkpt lat="49.09391" lon="6.65101">
        <ele>317.85</ele>
        <time>2021-01-23T06:56:44Z</time>
      </trkpt>
      <trkpt lat="49.09412" lon="6.65085">
        <ele>320.74</ele>
        <time>2021-01-23T06:57:01Z</time>
      </trkpt>
      <trkpt lat="49.09424" lon="6.65064">
        <ele>321.7</ele>
        <time>2021-01-23T06:57:15Z</time>
      </trkpt>
      <trkpt lat="49.09408" lon="6.65022">
        <ele>322.66</ele>
        <time>2021-01-23T06:57:36Z</time>
      </trkpt>
      <trkpt lat="49.09396" lon="6.64996">
        <ele>322.18</ele>
        <time>2021-01-23T06:57:51Z</time>
      </trkpt>
      <trkpt lat="49.09378" lon="6.64959">
        <ele>324.1</ele>
        <time>2021-01-23T06:58:12Z</time>
      </trkpt>
      <trkpt lat="49.09363" lon="6.64916">
        <ele>324.58</ele>
        <time>2021-01-23T06:58:34Z</time>
      </trkpt>
      <trkpt lat="49.09353" lon="6.64872">
        <ele>326.02</ele>
        <time>2021-01-23T06:58:55Z</time>
      </trkpt>
      <trkpt lat="49.09355" lon="6.64835">
        <ele>326.99</ele>
        <time>2021-01-23T06:59:13Z</time>
      </trkpt>
      <trkpt lat="49.0936" lon="6.6479">
        <ele>328.43</ele>
        <time>2021-01-23T06:59:34Z</time>
      </trkpt>
      <trkpt lat="49.09367" lon="6.64742">
        <ele>328.91</ele>
        <time>2021-01-23T06:59:56Z</time>
      </trkpt>
      <trkpt lat="49.09385" lon="6.64719">
        <ele>330.35</ele>
        <time>2021-01-23T07:00:14Z</time>
      </trkpt>
      <trkpt lat="49.09414" lon="6.64715">
        <ele>331.79</ele>
        <time>2021-01-23T07:00:34Z</time>
      </trkpt>
      <trkpt lat="49.09428" lon="6.64713">
        <ele>331.79</ele>
        <time>2021-01-23T07:00:51Z</time>
      </trkpt>
      <trkpt lat="49.09457" lon="6.6471">
        <ele>330.35</ele>
        <time>2021-01-23T07:01:10Z</time>
      </trkpt>
      <trkpt lat="49.09484" lon="6.64709">
        <ele>329.87</ele>
        <time>2021-01-23T07:01:29Z</time>
      </trkpt>
      <trkpt lat="49.09505" lon="6.64707">
        <ele>327.95</ele>
        <time>2021-01-23T07:01:44Z</time>
      </trkpt>
      <trkpt lat="49.09532" lon="6.64699">
        <ele>327.95</ele>
        <time>2021-01-23T07:02:04Z</time>
      </trkpt>
      <trkpt lat="49.09552" lon="6.64692">
        <ele>328.91</ele>
        <time>2021-01-23T07:02:20Z</time>
      </trkpt>
      <trkpt lat="49.09581" lon="6.64679">
        <ele>328.91</ele>
        <time>2021-01-23T07:02:42Z</time>
      </trkpt>
      <trkpt lat="49.09613" lon="6.64678">
        <ele>332.27</ele>
        <time>2021-01-23T07:03:04Z</time>
      </trkpt>
      <trkpt lat="49.09633" lon="6.64674">
        <ele>332.75</ele>
        <time>2021-01-23T07:03:19Z</time>
      </trkpt>
      <trkpt lat="49.09656" lon="6.64678">
        <ele>333.23</ele>
        <time>2021-01-23T07:03:36Z</time>
      </trkpt>
      <trkpt lat="49.09673" lon="6.64687">
        <ele>332.27</ele>
        <time>2021-01-23T07:03:48Z</time>
      </trkpt>
      <trkpt lat="49.09674" lon="6.64697">
        <ele>331.79</ele>
        <time>2021-01-23T07:03:54Z</time>
      </trkpt>
      <trkpt lat="49.09671" lon="6.64716">
        <ele>331.31</ele>
        <time>2021-01-23T07:04:07Z</time>
      </trkpt>
      <trkpt lat="49.09676" lon="6.64736">
        <ele>330.83</ele>
        <time>2021-01-23T07:04:23Z</time>
      </trkpt>
      <trkpt lat="49.09676" lon="6.64735">
        <ele>330.83</ele>
        <time>2021-01-23T07:04:42Z</time>
      </trkpt>
      <trkpt lat="49.09674" lon="6.64738">
        <ele>330.83</ele>
        <time>2021-01-23T07:04:59Z</time>
      </trkpt>
      <trkpt lat="49.09675" lon="6.64735">
        <ele>330.35</ele>
        <time>2021-01-23T07:05:17Z</time>
      </trkpt>
      <trkpt lat="49.09671" lon="6.64741">
        <ele>329.87</ele>
        <time>2021-01-23T07:05:29Z</time>
      </trkpt>
      <trkpt lat="49.09674" lon="6.64741">
        <ele>330.35</ele>
        <time>2021-01-23T07:05:52Z</time>
      </trkpt>
      <trkpt lat="49.09676" lon="6.64742">
        <ele>329.87</ele>
        <time>2021-01-23T07:06:15Z</time>
      </trkpt>
      <trkpt lat="49.0967" lon="6.64748">
        <ele>330.35</ele>
        <time>2021-01-23T07:06:35Z</time>
      </trkpt>
      <trkpt lat="49.09671" lon="6.64743">
        <ele>330.35</ele>
        <time>2021-01-23T07:07:06Z</time>
      </trkpt>
      <trkpt lat="49.09675" lon="6.64735">
        <ele>330.83</ele>
        <time>2021-01-23T07:07:28Z</time>
      </trkpt>
      <trkpt lat="49.09678" lon="6.64736">
        <ele>329.87</ele>
        <time>2021-01-23T07:07:51Z</time>
      </trkpt>
      <trkpt lat="49.09676" lon="6.64733">
        <ele>330.83</ele>
        <time>2021-01-23T07:08:15Z</time>
      </trkpt>
      <trkpt lat="49.09675" lon="6.64734">
        <ele>330.35</ele>
        <time>2021-01-23T07:08:41Z</time>
      </trkpt>
      <trkpt lat="49.09677" lon="6.64735">
        <ele>330.35</ele>
        <time>2021-01-23T07:09:09Z</time>
      </trkpt>
      <trkpt lat="49.09673" lon="6.64733">
        <ele>330.83</ele>
        <time>2021-01-23T07:09:30Z</time>
      </trkpt>
      <trkpt lat="49.09673" lon="6.64734">
        <ele>330.35</ele>
        <time>2021-01-23T07:09:51Z</time>
      </trkpt>
      <trkpt lat="49.09672" lon="6.64729">
        <ele>330.83</ele>
        <time>2021-01-23T07:10:01Z</time>
      </trkpt>
      <trkpt lat="49.09671" lon="6.6472">
        <ele>331.79</ele>
        <time>2021-01-23T07:10:06Z</time>
      </trkpt>
      <trkpt lat="49.09669" lon="6.64714">
        <ele>331.31</ele>
        <time>2021-01-23T07:10:10Z</time>
      </trkpt>
      <trkpt lat="49.09669" lon="6.64706">
        <ele>332.27</ele>
        <time>2021-01-23T07:10:15Z</time>
      </trkpt>
      <trkpt lat="49.09674" lon="6.64695">
        <ele>332.75</ele>
        <time>2021-01-23T07:10:24Z</time>
      </trkpt>
      <trkpt lat="49.09676" lon="6.64691">
        <ele>332.75</ele>
        <time>2021-01-23T07:10:27Z</time>
      </trkpt>
      <trkpt lat="49.09695" lon="6.64706">
        <ele>332.75</ele>
        <time>2021-01-23T07:10:45Z</time>
      </trkpt>
      <trkpt lat="49.097" lon="6.64707">
        <ele>333.23</ele>
        <time>2021-01-23T07:10:49Z</time>
      </trkpt>
      <trkpt lat="49.09721" lon="6.64714">
        <ele>331.31</ele>
        <time>2021-01-23T07:11:04Z</time>
      </trkpt>
      <trkpt lat="49.09727" lon="6.64715">
        <ele>331.31</ele>
        <time>2021-01-23T07:11:08Z</time>
      </trkpt>
      <trkpt lat="49.09751" lon="6.64712">
        <ele>329.39</ele>
        <time>2021-01-23T07:11:24Z</time>
      </trkpt>
      <trkpt lat="49.09775" lon="6.64709">
        <ele>326.5</ele>
        <time>2021-01-23T07:11:41Z</time>
      </trkpt>
      <trkpt lat="49.09786" lon="6.64708">
        <ele>326.02</ele>
        <time>2021-01-23T07:11:55Z</time>
      </trkpt>
      <trkpt lat="49.09808" lon="6.6471">
        <ele>324.58</ele>
        <time>2021-01-23T07:12:12Z</time>
      </trkpt>
      <trkpt lat="49.09825" lon="6.64706">
        <ele>325.54</ele>
        <time>2021-01-23T07:12:29Z</time>
      </trkpt>
      <trkpt lat="49.09838" lon="6.64696">
        <ele>326.02</ele>
        <time>2021-01-23T07:12:44Z</time>
      </trkpt>
      <trkpt lat="49.0984" lon="6.64695">
        <ele>327.47</ele>
        <time>2021-01-23T07:12:46Z</time>
      </trkpt>
      <trkpt lat="49.09841" lon="6.64694">
        <ele>327.95</ele>
        <time>2021-01-23T07:12:47Z</time>
      </trkpt>
      <trkpt lat="49.09861" lon="6.64672">
        <ele>329.87</ele>
        <time>2021-01-23T07:13:05Z</time>
      </trkpt>
      <trkpt lat="49.09873" lon="6.64658">
        <ele>331.31</ele>
        <time>2021-01-23T07:13:18Z</time>
      </trkpt>
      <trkpt lat="49.09892" lon="6.64642">
        <ele>332.75</ele>
        <time>2021-01-23T07:13:34Z</time>
      </trkpt>
      <trkpt lat="49.09906" lon="6.64615">
        <ele>334.68</ele>
        <time>2021-01-23T07:13:50Z</time>
      </trkpt>
      <trkpt lat="49.09923" lon="6.64611">
        <ele>336.6</ele>
        <time>2021-01-23T07:14:04Z</time>
      </trkpt>
      <trkpt lat="49.09938" lon="6.64636">
        <ele>336.6</ele>
        <time>2021-01-23T07:14:21Z</time>
      </trkpt>
      <trkpt lat="49.09944" lon="6.64645">
        <ele>336.6</ele>
        <time>2021-01-23T07:14:27Z</time>
      </trkpt>
      <trkpt lat="49.09954" lon="6.64664">
        <ele>337.56</ele>
        <time>2021-01-23T07:14:42Z</time>
      </trkpt>
      <trkpt lat="49.09957" lon="6.64672">
        <ele>338.04</ele>
        <time>2021-01-23T07:14:53Z</time>
      </trkpt>
      <trkpt lat="49.09961" lon="6.64681">
        <ele>337.56</ele>
        <time>2021-01-23T07:14:59Z</time>
      </trkpt>
      <trkpt lat="49.09972" lon="6.64707">
        <ele>339</ele>
        <time>2021-01-23T07:15:15Z</time>
      </trkpt>
      <trkpt lat="49.09983" lon="6.64732">
        <ele>338.52</ele>
        <time>2021-01-23T07:15:32Z</time>
      </trkpt>
      <trkpt lat="49.09991" lon="6.64761">
        <ele>338.52</ele>
        <time>2021-01-23T07:15:48Z</time>
      </trkpt>
      <trkpt lat="49.10002" lon="6.64793">
        <ele>340.92</ele>
        <time>2021-01-23T07:16:05Z</time>
      </trkpt>
      <trkpt lat="49.10009" lon="6.64817">
        <ele>340.92</ele>
        <time>2021-01-23T07:16:19Z</time>
      </trkpt>
      <trkpt lat="49.1002" lon="6.64841">
        <ele>341.89</ele>
        <time>2021-01-23T07:16:34Z</time>
      </trkpt>
      <trkpt lat="49.10031" lon="6.64874">
        <ele>341.89</ele>
        <time>2021-01-23T07:16:52Z</time>
      </trkpt>
      <trkpt lat="49.1004" lon="6.64897">
        <ele>343.33</ele>
        <time>2021-01-23T07:17:05Z</time>
      </trkpt>
      <trkpt lat="49.10049" lon="6.64925">
        <ele>343.33</ele>
        <time>2021-01-23T07:17:20Z</time>
      </trkpt>
      <trkpt lat="49.10054" lon="6.64933">
        <ele>344.29</ele>
        <time>2021-01-23T07:17:25Z</time>
      </trkpt>
      <trkpt lat="49.10057" lon="6.64939">
        <ele>343.33</ele>
        <time>2021-01-23T07:17:28Z</time>
      </trkpt>
      <trkpt lat="49.1006" lon="6.64953">
        <ele>344.77</ele>
        <time>2021-01-23T07:17:34Z</time>
      </trkpt>
      <trkpt lat="49.10061" lon="6.6496">
        <ele>344.77</ele>
        <time>2021-01-23T07:17:38Z</time>
      </trkpt>
      <trkpt lat="49.10074" lon="6.64991">
        <ele>345.25</ele>
        <time>2021-01-23T07:17:55Z</time>
      </trkpt>
      <trkpt lat="49.10084" lon="6.65019">
        <ele>344.77</ele>
        <time>2021-01-23T07:18:11Z</time>
      </trkpt>
      <trkpt lat="49.10085" lon="6.65021">
        <ele>346.21</ele>
        <time>2021-01-23T07:18:16Z</time>
      </trkpt>
      <trkpt lat="49.10089" lon="6.65026">
        <ele>345.73</ele>
        <time>2021-01-23T07:18:23Z</time>
      </trkpt>
      <trkpt lat="49.10098" lon="6.65044">
        <ele>345.25</ele>
        <time>2021-01-23T07:18:38Z</time>
      </trkpt>
      <trkpt lat="49.10102" lon="6.65075">
        <ele>345.73</ele>
        <time>2021-01-23T07:18:54Z</time>
      </trkpt>
      <trkpt lat="49.10105" lon="6.65095">
        <ele>346.21</ele>
        <time>2021-01-23T07:19:07Z</time>
      </trkpt>
      <trkpt lat="49.10106" lon="6.65134">
        <ele>347.17</ele>
        <time>2021-01-23T07:19:22Z</time>
      </trkpt>
      <trkpt lat="49.10109" lon="6.6517">
        <ele>346.21</ele>
        <time>2021-01-23T07:19:39Z</time>
      </trkpt>
      <trkpt lat="49.10111" lon="6.65205">
        <ele>346.69</ele>
        <time>2021-01-23T07:19:54Z</time>
      </trkpt>
      <trkpt lat="49.10113" lon="6.65218">
        <ele>346.21</ele>
        <time>2021-01-23T07:20:01Z</time>
      </trkpt>
      <trkpt lat="49.10116" lon="6.65243">
        <ele>346.69</ele>
        <time>2021-01-23T07:20:16Z</time>
      </trkpt>
      <trkpt lat="49.10118" lon="6.65268">
        <ele>346.69</ele>
        <time>2021-01-23T07:20:28Z</time>
      </trkpt>
      <trkpt lat="49.1012" lon="6.65301">
        <ele>345.73</ele>
        <time>2021-01-23T07:20:40Z</time>
      </trkpt>
      <trkpt lat="49.10122" lon="6.65325">
        <ele>346.69</ele>
        <time>2021-01-23T07:20:52Z</time>
      </trkpt>
      <trkpt lat="49.1012" lon="6.65357">
        <ele>347.65</ele>
        <time>2021-01-23T07:21:07Z</time>
      </trkpt>
      <trkpt lat="49.10123" lon="6.65361">
        <ele>347.17</ele>
        <time>2021-01-23T07:21:12Z</time>
      </trkpt>
      <trkpt lat="49.10132" lon="6.65399">
        <ele>347.65</ele>
        <time>2021-01-23T07:21:30Z</time>
      </trkpt>
      <trkpt lat="49.10134" lon="6.65427">
        <ele>347.17</ele>
        <time>2021-01-23T07:21:44Z</time>
      </trkpt>
      <trkpt lat="49.10139" lon="6.65456">
        <ele>347.17</ele>
        <time>2021-01-23T07:21:59Z</time>
      </trkpt>
      <trkpt lat="49.10144" lon="6.65488">
        <ele>347.65</ele>
        <time>2021-01-23T07:22:14Z</time>
      </trkpt>
      <trkpt lat="49.10145" lon="6.65498">
        <ele>347.65</ele>
        <time>2021-01-23T07:22:18Z</time>
      </trkpt>
      <trkpt lat="49.1015" lon="6.65527">
        <ele>347.17</ele>
        <time>2021-01-23T07:22:35Z</time>
      </trkpt>
      <trkpt lat="49.1015" lon="6.65565">
        <ele>347.17</ele>
        <time>2021-01-23T07:22:52Z</time>
      </trkpt>
      <trkpt lat="49.10153" lon="6.65589">
        <ele>347.65</ele>
        <time>2021-01-23T07:23:06Z</time>
      </trkpt>
      <trkpt lat="49.10153" lon="6.65596">
        <ele>347.17</ele>
        <time>2021-01-23T07:23:10Z</time>
      </trkpt>
      <trkpt lat="49.10148" lon="6.65638">
        <ele>347.17</ele>
        <time>2021-01-23T07:23:27Z</time>
      </trkpt>
      <trkpt lat="49.1015" lon="6.65678">
        <ele>346.69</ele>
        <time>2021-01-23T07:23:41Z</time>
      </trkpt>
      <trkpt lat="49.10155" lon="6.65714">
        <ele>347.65</ele>
        <time>2021-01-23T07:23:58Z</time>
      </trkpt>
      <trkpt lat="49.10157" lon="6.65747">
        <ele>347.65</ele>
        <time>2021-01-23T07:24:12Z</time>
      </trkpt>
      <trkpt lat="49.1016" lon="6.65777">
        <ele>346.21</ele>
        <time>2021-01-23T07:24:30Z</time>
      </trkpt>
      <trkpt lat="49.10168" lon="6.65799">
        <ele>346.21</ele>
        <time>2021-01-23T07:24:45Z</time>
      </trkpt>
      <trkpt lat="49.10175" lon="6.65835">
        <ele>346.21</ele>
        <time>2021-01-23T07:25:04Z</time>
      </trkpt>
      <trkpt lat="49.10171" lon="6.65878">
        <ele>346.69</ele>
        <time>2021-01-23T07:25:19Z</time>
      </trkpt>
      <trkpt lat="49.1017" lon="6.6593">
        <ele>345.25</ele>
        <time>2021-01-23T07:25:36Z</time>
      </trkpt>
      <trkpt lat="49.1017" lon="6.65962">
        <ele>346.21</ele>
        <time>2021-01-23T07:25:52Z</time>
      </trkpt>
      <trkpt lat="49.10167" lon="6.66">
        <ele>344.77</ele>
        <time>2021-01-23T07:26:07Z</time>
      </trkpt>
      <trkpt lat="49.10161" lon="6.66028">
        <ele>343.33</ele>
        <time>2021-01-23T07:26:22Z</time>
      </trkpt>
      <trkpt lat="49.10158" lon="6.66056">
        <ele>341.89</ele>
        <time>2021-01-23T07:26:37Z</time>
      </trkpt>
      <trkpt lat="49.10154" lon="6.66087">
        <ele>340.92</ele>
        <time>2021-01-23T07:26:54Z</time>
      </trkpt>
      <trkpt lat="49.10147" lon="6.66097">
        <ele>341.41</ele>
        <time>2021-01-23T07:27:29Z</time>
      </trkpt>
      <trkpt lat="49.10151" lon="6.66119">
        <ele>339.96</ele>
        <time>2021-01-23T07:27:47Z</time>
      </trkpt>
      <trkpt lat="49.10151" lon="6.66137">
        <ele>338.52</ele>
        <time>2021-01-23T07:28:00Z</time>
      </trkpt>
      <trkpt lat="49.10156" lon="6.66153">
        <ele>335.64</ele>
        <time>2021-01-23T07:28:16Z</time>
      </trkpt>
      <trkpt lat="49.10154" lon="6.66181">
        <ele>336.12</ele>
        <time>2021-01-23T07:28:25Z</time>
      </trkpt>
      <trkpt lat="49.10151" lon="6.66216">
        <ele>334.68</ele>
        <time>2021-01-23T07:28:35Z</time>
      </trkpt>
      <trkpt lat="49.10151" lon="6.6623">
        <ele>334.2</ele>
        <time>2021-01-23T07:28:39Z</time>
      </trkpt>
      <trkpt lat="49.10152" lon="6.66257">
        <ele>334.2</ele>
        <time>2021-01-23T07:28:50Z</time>
      </trkpt>
      <trkpt lat="49.10156" lon="6.66284">
        <ele>333.23</ele>
        <time>2021-01-23T07:29:02Z</time>
      </trkpt>
      <trkpt lat="49.10159" lon="6.66292">
        <ele>334.2</ele>
        <time>2021-01-23T07:29:06Z</time>
      </trkpt>
      <trkpt lat="49.10163" lon="6.6632">
        <ele>332.75</ele>
        <time>2021-01-23T07:29:20Z</time>
      </trkpt>
      <trkpt lat="49.10163" lon="6.66323">
        <ele>332.27</ele>
        <time>2021-01-23T07:29:21Z</time>
      </trkpt>
      <trkpt lat="49.10164" lon="6.66362">
        <ele>330.83</ele>
        <time>2021-01-23T07:29:37Z</time>
      </trkpt>
      <trkpt lat="49.1017" lon="6.66404">
        <ele>329.87</ele>
        <time>2021-01-23T07:29:54Z</time>
      </trkpt>
      <trkpt lat="49.10173" lon="6.66444">
        <ele>327.95</ele>
        <time>2021-01-23T07:30:13Z</time>
      </trkpt>
      <trkpt lat="49.10174" lon="6.66477">
        <ele>326.02</ele>
        <time>2021-01-23T07:30:27Z</time>
      </trkpt>
      <trkpt lat="49.10175" lon="6.66499">
        <ele>324.58</ele>
        <time>2021-01-23T07:30:40Z</time>
      </trkpt>
      <trkpt lat="49.10181" lon="6.66524">
        <ele>320.74</ele>
        <time>2021-01-23T07:30:52Z</time>
      </trkpt>
      <trkpt lat="49.10186" lon="6.66553">
        <ele>318.81</ele>
        <time>2021-01-23T07:31:06Z</time>
      </trkpt>
      <trkpt lat="49.10189" lon="6.66583">
        <ele>315.45</ele>
        <time>2021-01-23T07:31:19Z</time>
      </trkpt>
      <trkpt lat="49.1019" lon="6.66609">
        <ele>314.01</ele>
        <time>2021-01-23T07:31:32Z</time>
      </trkpt>
      <trkpt lat="49.10192" lon="6.66618">
        <ele>313.53</ele>
        <time>2021-01-23T07:31:36Z</time>
      </trkpt>
      <trkpt lat="49.10202" lon="6.66657">
        <ele>310.64</ele>
        <time>2021-01-23T07:31:56Z</time>
      </trkpt>
      <trkpt lat="49.10207" lon="6.66673">
        <ele>310.16</ele>
        <time>2021-01-23T07:32:06Z</time>
      </trkpt>
      <trkpt lat="49.10213" lon="6.66705">
        <ele>308.72</ele>
        <time>2021-01-23T07:32:18Z</time>
      </trkpt>
      <trkpt lat="49.10215" lon="6.66722">
        <ele>308.24</ele>
        <time>2021-01-23T07:32:37Z</time>
      </trkpt>
      <trkpt lat="49.10224" lon="6.66739">
        <ele>307.76</ele>
        <time>2021-01-23T07:32:57Z</time>
      </trkpt>
      <trkpt lat="49.10233" lon="6.6675">
        <ele>306.32</ele>
        <time>2021-01-23T07:33:13Z</time>
      </trkpt>
      <trkpt lat="49.10233" lon="6.66748">
        <ele>305.84</ele>
        <time>2021-01-23T07:33:19Z</time>
      </trkpt>
      <trkpt lat="49.10217" lon="6.66739">
        <ele>307.76</ele>
        <time>2021-01-23T07:33:35Z</time>
      </trkpt>
      <trkpt lat="49.10219" lon="6.66761">
        <ele>305.36</ele>
        <time>2021-01-23T07:33:48Z</time>
      </trkpt>
      <trkpt lat="49.1022" lon="6.66783">
        <ele>301.99</ele>
        <time>2021-01-23T07:34:02Z</time>
      </trkpt>
      <trkpt lat="49.10213" lon="6.66809">
        <ele>299.11</ele>
        <time>2021-01-23T07:34:14Z</time>
      </trkpt>
      <trkpt lat="49.10214" lon="6.66843">
        <ele>295.74</ele>
        <time>2021-01-23T07:34:28Z</time>
      </trkpt>
      <trkpt lat="49.10212" lon="6.66883">
        <ele>295.26</ele>
        <time>2021-01-23T07:34:46Z</time>
      </trkpt>
      <trkpt lat="49.10214" lon="6.66892">
        <ele>294.3</ele>
        <time>2021-01-23T07:34:50Z</time>
      </trkpt>
      <trkpt lat="49.10215" lon="6.66923">
        <ele>293.82</ele>
        <time>2021-01-23T07:35:05Z</time>
      </trkpt>
      <trkpt lat="49.10221" lon="6.66928">
        <ele>292.86</ele>
        <time>2021-01-23T07:35:21Z</time>
      </trkpt>
      <trkpt lat="49.10224" lon="6.66927">
        <ele>292.86</ele>
        <time>2021-01-23T07:35:31Z</time>
      </trkpt>
      <trkpt lat="49.1024" lon="6.66929">
        <ele>290.46</ele>
        <time>2021-01-23T07:35:43Z</time>
      </trkpt>
      <trkpt lat="49.1025" lon="6.66922">
        <ele>288.05</ele>
        <time>2021-01-23T07:35:51Z</time>
      </trkpt>
      <trkpt lat="49.10262" lon="6.66908">
        <ele>285.17</ele>
        <time>2021-01-23T07:36:04Z</time>
      </trkpt>
      <trkpt lat="49.10269" lon="6.66904">
        <ele>283.73</ele>
        <time>2021-01-23T07:36:12Z</time>
      </trkpt>
      <trkpt lat="49.10297" lon="6.66902">
        <ele>283.73</ele>
        <time>2021-01-23T07:36:28Z</time>
      </trkpt>
      <trkpt lat="49.10322" lon="6.66906">
        <ele>284.21</ele>
        <time>2021-01-23T07:36:44Z</time>
      </trkpt>
      <trkpt lat="49.10335" lon="6.66902">
        <ele>281.32</ele>
        <time>2021-01-23T07:36:52Z</time>
      </trkpt>
      <trkpt lat="49.10351" lon="6.66892">
        <ele>281.8</ele>
        <time>2021-01-23T07:37:02Z</time>
      </trkpt>
      <trkpt lat="49.10362" lon="6.66879">
        <ele>278.92</ele>
        <time>2021-01-23T07:37:12Z</time>
      </trkpt>
      <trkpt lat="49.10366" lon="6.66874">
        <ele>277</ele>
        <time>2021-01-23T07:37:14Z</time>
      </trkpt>
      <trkpt lat="49.10374" lon="6.66862">
        <ele>277.96</ele>
        <time>2021-01-23T07:37:25Z</time>
      </trkpt>
      <trkpt lat="49.10374" lon="6.66861">
        <ele>277.96</ele>
        <time>2021-01-23T07:37:41Z</time>
      </trkpt>
      <trkpt lat="49.10375" lon="6.66867">
        <ele>277.96</ele>
        <time>2021-01-23T07:38:05Z</time>
      </trkpt>
      <trkpt lat="49.10376" lon="6.66861">
        <ele>277</ele>
        <time>2021-01-23T07:38:24Z</time>
      </trkpt>
      <trkpt lat="49.10379" lon="6.66852">
        <ele>275.56</ele>
        <time>2021-01-23T07:38:42Z</time>
      </trkpt>
      <trkpt lat="49.10379" lon="6.66817">
        <ele>273.63</ele>
        <time>2021-01-23T07:38:58Z</time>
      </trkpt>
      <trkpt lat="49.10386" lon="6.66799">
        <ele>272.19</ele>
        <time>2021-01-23T07:39:11Z</time>
      </trkpt>
      <trkpt lat="49.10387" lon="6.66797">
        <ele>272.19</ele>
        <time>2021-01-23T07:39:12Z</time>
      </trkpt>
      <trkpt lat="49.10391" lon="6.66793">
        <ele>271.23</ele>
        <time>2021-01-23T07:39:15Z</time>
      </trkpt>
      <trkpt lat="49.1041" lon="6.66774">
        <ele>268.83</ele>
        <time>2021-01-23T07:39:31Z</time>
      </trkpt>
      <trkpt lat="49.10419" lon="6.66761">
        <ele>267.86</ele>
        <time>2021-01-23T07:39:39Z</time>
      </trkpt>
      <trkpt lat="49.10431" lon="6.6674">
        <ele>267.38</ele>
        <time>2021-01-23T07:39:56Z</time>
      </trkpt>
      <trkpt lat="49.10452" lon="6.66717">
        <ele>264.98</ele>
        <time>2021-01-23T07:40:15Z</time>
      </trkpt>
      <trkpt lat="49.10473" lon="6.66697">
        <ele>264.5</ele>
        <time>2021-01-23T07:40:31Z</time>
      </trkpt>
      <trkpt lat="49.1049" lon="6.66682">
        <ele>264.02</ele>
        <time>2021-01-23T07:40:49Z</time>
      </trkpt>
      <trkpt lat="49.10504" lon="6.66669">
        <ele>262.58</ele>
        <time>2021-01-23T07:41:03Z</time>
      </trkpt>
      <trkpt lat="49.10521" lon="6.66627">
        <ele>263.54</ele>
        <time>2021-01-23T07:41:22Z</time>
      </trkpt>
      <trkpt lat="49.10528" lon="6.66618">
        <ele>262.58</ele>
        <time>2021-01-23T07:41:29Z</time>
      </trkpt>
      <trkpt lat="49.10551" lon="6.66595">
        <ele>262.1</ele>
        <time>2021-01-23T07:41:45Z</time>
      </trkpt>
      <trkpt lat="49.1057" lon="6.66567">
        <ele>261.62</ele>
        <time>2021-01-23T07:42:03Z</time>
      </trkpt>
      <trkpt lat="49.10593" lon="6.66533">
        <ele>262.58</ele>
        <time>2021-01-23T07:42:22Z</time>
      </trkpt>
      <trkpt lat="49.10613" lon="6.66504">
        <ele>261.62</ele>
        <time>2021-01-23T07:42:40Z</time>
      </trkpt>
      <trkpt lat="49.10627" lon="6.66479">
        <ele>261.14</ele>
        <time>2021-01-23T07:42:55Z</time>
      </trkpt>
      <trkpt lat="49.10644" lon="6.66456">
        <ele>259.69</ele>
        <time>2021-01-23T07:43:12Z</time>
      </trkpt>
      <trkpt lat="49.10661" lon="6.66428">
        <ele>256.81</ele>
        <time>2021-01-23T07:43:31Z</time>
      </trkpt>
      <trkpt lat="49.10672" lon="6.66411">
        <ele>255.85</ele>
        <time>2021-01-23T07:43:39Z</time>
      </trkpt>
      <trkpt lat="49.10673" lon="6.66409">
        <ele>255.37</ele>
        <time>2021-01-23T07:43:40Z</time>
      </trkpt>
      <trkpt lat="49.10686" lon="6.66377">
        <ele>254.89</ele>
        <time>2021-01-23T07:43:55Z</time>
      </trkpt>
      <trkpt lat="49.10693" lon="6.66345">
        <ele>252.96</ele>
        <time>2021-01-23T07:44:10Z</time>
      </trkpt>
      <trkpt lat="49.10695" lon="6.66316">
        <ele>251.04</ele>
        <time>2021-01-23T07:44:20Z</time>
      </trkpt>
      <trkpt lat="49.10695" lon="6.66313">
        <ele>251.52</ele>
        <time>2021-01-23T07:44:21Z</time>
      </trkpt>
      <trkpt lat="49.10695" lon="6.6631">
        <ele>251.52</ele>
        <time>2021-01-23T07:44:22Z</time>
      </trkpt>
      <trkpt lat="49.10696" lon="6.66308">
        <ele>251.04</ele>
        <time>2021-01-23T07:44:23Z</time>
      </trkpt>
      <trkpt lat="49.10703" lon="6.66281">
        <ele>250.08</ele>
        <time>2021-01-23T07:44:37Z</time>
      </trkpt>
      <trkpt lat="49.10707" lon="6.66281">
        <ele>249.6</ele>
        <time>2021-01-23T07:44:41Z</time>
      </trkpt>
      <trkpt lat="49.10726" lon="6.66305">
        <ele>249.6</ele>
        <time>2021-01-23T07:44:57Z</time>
      </trkpt>
      <trkpt lat="49.10746" lon="6.66331">
        <ele>250.56</ele>
        <time>2021-01-23T07:45:13Z</time>
      </trkpt>
      <trkpt lat="49.10757" lon="6.66355">
        <ele>249.6</ele>
        <time>2021-01-23T07:45:29Z</time>
      </trkpt>
      <trkpt lat="49.1077" lon="6.66378">
        <ele>250.08</ele>
        <time>2021-01-23T07:45:43Z</time>
      </trkpt>
      <trkpt lat="49.10772" lon="6.66382">
        <ele>249.6</ele>
        <time>2021-01-23T07:45:45Z</time>
      </trkpt>
      <trkpt lat="49.10793" lon="6.66413">
        <ele>250.56</ele>
        <time>2021-01-23T07:46:01Z</time>
      </trkpt>
      <trkpt lat="49.10806" lon="6.66435">
        <ele>250.56</ele>
        <time>2021-01-23T07:46:17Z</time>
      </trkpt>
      <trkpt lat="49.10818" lon="6.66455">
        <ele>251.04</ele>
        <time>2021-01-23T07:46:31Z</time>
      </trkpt>
      <trkpt lat="49.10834" lon="6.66477">
        <ele>250.56</ele>
        <time>2021-01-23T07:46:46Z</time>
      </trkpt>
      <trkpt lat="49.10855" lon="6.66504">
        <ele>250.08</ele>
        <time>2021-01-23T07:47:05Z</time>
      </trkpt>
      <trkpt lat="49.1086" lon="6.66511">
        <ele>251.04</ele>
        <time>2021-01-23T07:47:09Z</time>
      </trkpt>
      <trkpt lat="49.10873" lon="6.6653">
        <ele>250.56</ele>
        <time>2021-01-23T07:47:23Z</time>
      </trkpt>
      <trkpt lat="49.10891" lon="6.66552">
        <ele>251.04</ele>
        <time>2021-01-23T07:47:39Z</time>
      </trkpt>
      <trkpt lat="49.10895" lon="6.66556">
        <ele>251.04</ele>
        <time>2021-01-23T07:47:42Z</time>
      </trkpt>
      <trkpt lat="49.10914" lon="6.66584">
        <ele>252.48</ele>
        <time>2021-01-23T07:47:58Z</time>
      </trkpt>
      <trkpt lat="49.10931" lon="6.66609">
        <ele>253.44</ele>
        <time>2021-01-23T07:48:14Z</time>
      </trkpt>
      <trkpt lat="49.10938" lon="6.66622">
        <ele>253.44</ele>
        <time>2021-01-23T07:48:20Z</time>
      </trkpt>
      <trkpt lat="49.10952" lon="6.66655">
        <ele>253.44</ele>
        <time>2021-01-23T07:48:37Z</time>
      </trkpt>
      <trkpt lat="49.10974" lon="6.66689">
        <ele>253.93</ele>
        <time>2021-01-23T07:48:57Z</time>
      </trkpt>
      <trkpt lat="49.10994" lon="6.66722">
        <ele>253.44</ele>
        <time>2021-01-23T07:49:16Z</time>
      </trkpt>
      <trkpt lat="49.11017" lon="6.66757">
        <ele>252.48</ele>
        <time>2021-01-23T07:49:37Z</time>
      </trkpt>
      <trkpt lat="49.11036" lon="6.66785">
        <ele>251.04</ele>
        <time>2021-01-23T07:49:55Z</time>
      </trkpt>
      <trkpt lat="49.11056" lon="6.6682">
        <ele>248.64</ele>
        <time>2021-01-23T07:50:15Z</time>
      </trkpt>
      <trkpt lat="49.11061" lon="6.66837">
        <ele>248.16</ele>
        <time>2021-01-23T07:50:24Z</time>
      </trkpt>
      <trkpt lat="49.11061" lon="6.6684">
        <ele>247.68</ele>
        <time>2021-01-23T07:50:25Z</time>
      </trkpt>
      <trkpt lat="49.11061" lon="6.66863">
        <ele>246.23</ele>
        <time>2021-01-23T07:50:38Z</time>
      </trkpt>
      <trkpt lat="49.11058" lon="6.66865">
        <ele>246.72</ele>
        <time>2021-01-23T07:50:40Z</time>
      </trkpt>
      <trkpt lat="49.11057" lon="6.66865">
        <ele>246.23</ele>
        <time>2021-01-23T07:50:41Z</time>
      </trkpt>
      <trkpt lat="49.11031" lon="6.66866">
        <ele>247.68</ele>
        <time>2021-01-23T07:51:00Z</time>
      </trkpt>
      <trkpt lat="49.11009" lon="6.66858">
        <ele>249.12</ele>
        <time>2021-01-23T07:51:17Z</time>
      </trkpt>
      <trkpt lat="49.10993" lon="6.66855">
        <ele>249.12</ele>
        <time>2021-01-23T07:51:31Z</time>
      </trkpt>
      <trkpt lat="49.10969" lon="6.66849">
        <ele>249.12</ele>
        <time>2021-01-23T07:51:49Z</time>
      </trkpt>
      <trkpt lat="49.10939" lon="6.66842">
        <ele>249.6</ele>
        <time>2021-01-23T07:52:11Z</time>
      </trkpt>
      <trkpt lat="49.10916" lon="6.66835">
        <ele>249.12</ele>
        <time>2021-01-23T07:52:28Z</time>
      </trkpt>
      <trkpt lat="49.10895" lon="6.6684">
        <ele>251.04</ele>
        <time>2021-01-23T07:52:44Z</time>
      </trkpt>
      <trkpt lat="49.10871" lon="6.66852">
        <ele>251.52</ele>
        <time>2021-01-23T07:53:01Z</time>
      </trkpt>
      <trkpt lat="49.10851" lon="6.66857">
        <ele>252.96</ele>
        <time>2021-01-23T07:53:15Z</time>
      </trkpt>
      <trkpt lat="49.1083" lon="6.66861">
        <ele>252.96</ele>
        <time>2021-01-23T07:53:29Z</time>
      </trkpt>
      <trkpt lat="49.10807" lon="6.66863">
        <ele>252.96</ele>
        <time>2021-01-23T07:53:44Z</time>
      </trkpt>
      <trkpt lat="49.10784" lon="6.66867">
        <ele>253.44</ele>
        <time>2021-01-23T07:53:59Z</time>
      </trkpt>
      <trkpt lat="49.1076" lon="6.66879">
        <ele>252.48</ele>
        <time>2021-01-23T07:54:17Z</time>
      </trkpt>
      <trkpt lat="49.1074" lon="6.6689">
        <ele>252.48</ele>
        <time>2021-01-23T07:54:34Z</time>
      </trkpt>
      <trkpt lat="49.10733" lon="6.66894">
        <ele>252</ele>
        <time>2021-01-23T07:54:49Z</time>
      </trkpt>
      <trkpt lat="49.10732" lon="6.66893">
        <ele>252</ele>
        <time>2021-01-23T07:54:50Z</time>
      </trkpt>
      <trkpt lat="49.10704" lon="6.66894">
        <ele>250.08</ele>
        <time>2021-01-23T07:55:10Z</time>
      </trkpt>
      <trkpt lat="49.10682" lon="6.66887">
        <ele>248.64</ele>
        <time>2021-01-23T07:55:27Z</time>
      </trkpt>
      <trkpt lat="49.10664" lon="6.66883">
        <ele>249.6</ele>
        <time>2021-01-23T07:55:43Z</time>
      </trkpt>
      <trkpt lat="49.10654" lon="6.66877">
        <ele>248.64</ele>
        <time>2021-01-23T07:56:02Z</time>
      </trkpt>
      <trkpt lat="49.1063" lon="6.66873">
        <ele>251.04</ele>
        <time>2021-01-23T07:56:20Z</time>
      </trkpt>
      <trkpt lat="49.1061" lon="6.66874">
        <ele>251.52</ele>
        <time>2021-01-23T07:56:34Z</time>
      </trkpt>
      <trkpt lat="49.10609" lon="6.66874">
        <ele>251.04</ele>
        <time>2021-01-23T07:56:35Z</time>
      </trkpt>
      <trkpt lat="49.10596" lon="6.66882">
        <ele>252</ele>
        <time>2021-01-23T07:56:50Z</time>
      </trkpt>
      <trkpt lat="49.10585" lon="6.66897">
        <ele>253.44</ele>
        <time>2021-01-23T07:57:08Z</time>
      </trkpt>
      <trkpt lat="49.10562" lon="6.66935">
        <ele>255.85</ele>
        <time>2021-01-23T07:57:22Z</time>
      </trkpt>
      <trkpt lat="49.10548" lon="6.66958">
        <ele>255.85</ele>
        <time>2021-01-23T07:57:38Z</time>
      </trkpt>
      <trkpt lat="49.10529" lon="6.66968">
        <ele>257.29</ele>
        <time>2021-01-23T07:57:55Z</time>
      </trkpt>
      <trkpt lat="49.1051" lon="6.66984">
        <ele>258.73</ele>
        <time>2021-01-23T07:58:09Z</time>
      </trkpt>
      <trkpt lat="49.10496" lon="6.67004">
        <ele>261.62</ele>
        <time>2021-01-23T07:58:21Z</time>
      </trkpt>
      <trkpt lat="49.10494" lon="6.67007">
        <ele>262.1</ele>
        <time>2021-01-23T07:58:35Z</time>
      </trkpt>
      <trkpt lat="49.10493" lon="6.67008">
        <ele>263.06</ele>
        <time>2021-01-23T07:58:52Z</time>
      </trkpt>
      <trkpt lat="49.10493" lon="6.67012">
        <ele>263.06</ele>
        <time>2021-01-23T07:58:55Z</time>
      </trkpt>
      <trkpt lat="49.10489" lon="6.67029">
        <ele>263.54</ele>
        <time>2021-01-23T07:59:12Z</time>
      </trkpt>
      <trkpt lat="49.10482" lon="6.67048">
        <ele>264.5</ele>
        <time>2021-01-23T07:59:29Z</time>
      </trkpt>
      <trkpt lat="49.10467" lon="6.67082">
        <ele>264.02</ele>
        <time>2021-01-23T07:59:46Z</time>
      </trkpt>
      <trkpt lat="49.10458" lon="6.67095">
        <ele>260.65</ele>
        <time>2021-01-23T07:59:57Z</time>
      </trkpt>
      <trkpt lat="49.10457" lon="6.67095">
        <ele>260.17</ele>
        <time>2021-01-23T07:59:58Z</time>
      </trkpt>
      <trkpt lat="49.10455" lon="6.67096">
        <ele>260.65</ele>
        <time>2021-01-23T07:59:59Z</time>
      </trkpt>
      <trkpt lat="49.10454" lon="6.67096">
        <ele>260.17</ele>
        <time>2021-01-23T08:00:00Z</time>
      </trkpt>
      <trkpt lat="49.10447" lon="6.67096">
        <ele>259.69</ele>
        <time>2021-01-23T08:00:04Z</time>
      </trkpt>
      <trkpt lat="49.10446" lon="6.67096">
        <ele>259.21</ele>
        <time>2021-01-23T08:00:05Z</time>
      </trkpt>
      <trkpt lat="49.10441" lon="6.67094">
        <ele>258.25</ele>
        <time>2021-01-23T08:00:09Z</time>
      </trkpt>
      <trkpt lat="49.10436" lon="6.67093">
        <ele>257.29</ele>
        <time>2021-01-23T08:00:13Z</time>
      </trkpt>
      <trkpt lat="49.10434" lon="6.67093">
        <ele>256.33</ele>
        <time>2021-01-23T08:00:15Z</time>
      </trkpt>
      <trkpt lat="49.10432" lon="6.67094">
        <ele>257.29</ele>
        <time>2021-01-23T08:00:16Z</time>
      </trkpt>
      <trkpt lat="49.1042" lon="6.67111">
        <ele>255.85</ele>
        <time>2021-01-23T08:00:29Z</time>
      </trkpt>
      <trkpt lat="49.10414" lon="6.67137">
        <ele>254.41</ele>
        <time>2021-01-23T08:00:46Z</time>
      </trkpt>
      <trkpt lat="49.10415" lon="6.67161">
        <ele>251.52</ele>
        <time>2021-01-23T08:00:59Z</time>
      </trkpt>
      <trkpt lat="49.10448" lon="6.67176">
        <ele>249.12</ele>
        <time>2021-01-23T08:01:15Z</time>
      </trkpt>
      <trkpt lat="49.10457" lon="6.67189">
        <ele>247.68</ele>
        <time>2021-01-23T08:01:29Z</time>
      </trkpt>
      <trkpt lat="49.10466" lon="6.67202">
        <ele>246.23</ele>
        <time>2021-01-23T08:01:38Z</time>
      </trkpt>
      <trkpt lat="49.10471" lon="6.67215">
        <ele>245.75</ele>
        <time>2021-01-23T08:01:47Z</time>
      </trkpt>
      <trkpt lat="49.10474" lon="6.67219">
        <ele>245.27</ele>
        <time>2021-01-23T08:01:50Z</time>
      </trkpt>
      <trkpt lat="49.10475" lon="6.6722">
        <ele>245.27</ele>
        <time>2021-01-23T08:01:51Z</time>
      </trkpt>
      <trkpt lat="49.10486" lon="6.67236">
        <ele>243.83</ele>
        <time>2021-01-23T08:02:03Z</time>
      </trkpt>
      <trkpt lat="49.10505" lon="6.67272">
        <ele>242.39</ele>
        <time>2021-01-23T08:02:20Z</time>
      </trkpt>
      <trkpt lat="49.1051" lon="6.67281">
        <ele>242.39</ele>
        <time>2021-01-23T08:02:23Z</time>
      </trkpt>
      <trkpt lat="49.10512" lon="6.67283">
        <ele>241.91</ele>
        <time>2021-01-23T08:02:24Z</time>
      </trkpt>
      <trkpt lat="49.10525" lon="6.6733">
        <ele>240.47</ele>
        <time>2021-01-23T08:02:42Z</time>
      </trkpt>
      <trkpt lat="49.10529" lon="6.67344">
        <ele>239.51</ele>
        <time>2021-01-23T08:02:48Z</time>
      </trkpt>
      <trkpt lat="49.10529" lon="6.67346">
        <ele>239.51</ele>
        <time>2021-01-23T08:02:49Z</time>
      </trkpt>
      <trkpt lat="49.1053" lon="6.67348">
        <ele>240.47</ele>
        <time>2021-01-23T08:02:50Z</time>
      </trkpt>
      <trkpt lat="49.10528" lon="6.67373">
        <ele>239.51</ele>
        <time>2021-01-23T08:03:03Z</time>
      </trkpt>
      <trkpt lat="49.10521" lon="6.67403">
        <ele>241.43</ele>
        <time>2021-01-23T08:03:17Z</time>
      </trkpt>
      <trkpt lat="49.10515" lon="6.67443">
        <ele>239.99</ele>
        <time>2021-01-23T08:03:33Z</time>
      </trkpt>
      <trkpt lat="49.1051" lon="6.6747">
        <ele>239.51</ele>
        <time>2021-01-23T08:03:48Z</time>
      </trkpt>
      <trkpt lat="49.10496" lon="6.67506">
        <ele>239.51</ele>
        <time>2021-01-23T08:04:02Z</time>
      </trkpt>
      <trkpt lat="49.10497" lon="6.67508">
        <ele>239.99</ele>
        <time>2021-01-23T08:04:18Z</time>
      </trkpt>
      <trkpt lat="49.10488" lon="6.67538">
        <ele>239.51</ele>
        <time>2021-01-23T08:04:33Z</time>
      </trkpt>
      <trkpt lat="49.10481" lon="6.67576">
        <ele>239.02</ele>
        <time>2021-01-23T08:04:51Z</time>
      </trkpt>
      <trkpt lat="49.10476" lon="6.67615">
        <ele>238.06</ele>
        <time>2021-01-23T08:05:09Z</time>
      </trkpt>
      <trkpt lat="49.10476" lon="6.67653">
        <ele>238.06</ele>
        <time>2021-01-23T08:05:26Z</time>
      </trkpt>
      <trkpt lat="49.10472" lon="6.67664">
        <ele>239.99</ele>
        <time>2021-01-23T08:05:34Z</time>
      </trkpt>
      <trkpt lat="49.10466" lon="6.67662">
        <ele>241.91</ele>
        <time>2021-01-23T08:05:42Z</time>
      </trkpt>
      <trkpt lat="49.10462" lon="6.67656">
        <ele>242.39</ele>
        <time>2021-01-23T08:05:47Z</time>
      </trkpt>
      <trkpt lat="49.1046" lon="6.67648">
        <ele>244.79</ele>
        <time>2021-01-23T08:05:53Z</time>
      </trkpt>
      <trkpt lat="49.10454" lon="6.67634">
        <ele>247.2</ele>
        <time>2021-01-23T08:06:04Z</time>
      </trkpt>
      <trkpt lat="49.10452" lon="6.67628">
        <ele>249.12</ele>
        <time>2021-01-23T08:06:08Z</time>
      </trkpt>
      <trkpt lat="49.10451" lon="6.67627">
        <ele>249.12</ele>
        <time>2021-01-23T08:06:09Z</time>
      </trkpt>
      <trkpt lat="49.1045" lon="6.67626">
        <ele>249.12</ele>
        <time>2021-01-23T08:06:10Z</time>
      </trkpt>
      <trkpt lat="49.10438" lon="6.67607">
        <ele>251.04</ele>
        <time>2021-01-23T08:06:23Z</time>
      </trkpt>
      <trkpt lat="49.10425" lon="6.67574">
        <ele>252.96</ele>
        <time>2021-01-23T08:06:42Z</time>
      </trkpt>
      <trkpt lat="49.10418" lon="6.67552">
        <ele>255.85</ele>
        <time>2021-01-23T08:06:54Z</time>
      </trkpt>
      <trkpt lat="49.10401" lon="6.67515">
        <ele>256.81</ele>
        <time>2021-01-23T08:07:13Z</time>
      </trkpt>
      <trkpt lat="49.10384" lon="6.6749">
        <ele>258.25</ele>
        <time>2021-01-23T08:07:29Z</time>
      </trkpt>
      <trkpt lat="49.10371" lon="6.6747">
        <ele>259.69</ele>
        <time>2021-01-23T08:07:44Z</time>
      </trkpt>
      <trkpt lat="49.10358" lon="6.67442">
        <ele>259.69</ele>
        <time>2021-01-23T08:08:01Z</time>
      </trkpt>
      <trkpt lat="49.10345" lon="6.67413">
        <ele>260.65</ele>
        <time>2021-01-23T08:08:19Z</time>
      </trkpt>
      <trkpt lat="49.10338" lon="6.67398">
        <ele>261.14</ele>
        <time>2021-01-23T08:08:24Z</time>
      </trkpt>
      <trkpt lat="49.10329" lon="6.67382">
        <ele>261.62</ele>
        <time>2021-01-23T08:08:34Z</time>
      </trkpt>
      <trkpt lat="49.10328" lon="6.67379">
        <ele>262.1</ele>
        <time>2021-01-23T08:08:35Z</time>
      </trkpt>
      <trkpt lat="49.10321" lon="6.67358">
        <ele>264.02</ele>
        <time>2021-01-23T08:08:44Z</time>
      </trkpt>
      <trkpt lat="49.10316" lon="6.67342">
        <ele>264.5</ele>
        <time>2021-01-23T08:08:50Z</time>
      </trkpt>
      <trkpt lat="49.103" lon="6.67325">
        <ele>264.5</ele>
        <time>2021-01-23T08:09:04Z</time>
      </trkpt>
      <trkpt lat="49.10284" lon="6.67304">
        <ele>264.5</ele>
        <time>2021-01-23T08:09:19Z</time>
      </trkpt>
      <trkpt lat="49.10276" lon="6.67271">
        <ele>267.38</ele>
        <time>2021-01-23T08:09:36Z</time>
      </trkpt>
      <trkpt lat="49.10273" lon="6.67258">
        <ele>267.38</ele>
        <time>2021-01-23T08:09:44Z</time>
      </trkpt>
      <trkpt lat="49.10272" lon="6.67257">
        <ele>267.86</ele>
        <time>2021-01-23T08:09:45Z</time>
      </trkpt>
      <trkpt lat="49.1027" lon="6.67254">
        <ele>267.38</ele>
        <time>2021-01-23T08:09:46Z</time>
      </trkpt>
      <trkpt lat="49.10246" lon="6.6723">
        <ele>269.79</ele>
        <time>2021-01-23T08:10:06Z</time>
      </trkpt>
      <trkpt lat="49.10234" lon="6.67203">
        <ele>271.71</ele>
        <time>2021-01-23T08:10:22Z</time>
      </trkpt>
      <trkpt lat="49.10224" lon="6.67173">
        <ele>273.15</ele>
        <time>2021-01-23T08:10:38Z</time>
      </trkpt>
      <trkpt lat="49.10224" lon="6.67154">
        <ele>274.59</ele>
        <time>2021-01-23T08:10:47Z</time>
      </trkpt>
      <trkpt lat="49.10217" lon="6.67124">
        <ele>276.04</ele>
        <time>2021-01-23T08:11:01Z</time>
      </trkpt>
      <trkpt lat="49.10207" lon="6.67093">
        <ele>277.96</ele>
        <time>2021-01-23T08:11:17Z</time>
      </trkpt>
      <trkpt lat="49.10205" lon="6.67083">
        <ele>278.92</ele>
        <time>2021-01-23T08:11:24Z</time>
      </trkpt>
      <trkpt lat="49.10203" lon="6.67073">
        <ele>278.92</ele>
        <time>2021-01-23T08:11:30Z</time>
      </trkpt>
      <trkpt lat="49.102" lon="6.67056">
        <ele>279.88</ele>
        <time>2021-01-23T08:11:41Z</time>
      </trkpt>
      <trkpt lat="49.10187" lon="6.67032">
        <ele>278.44</ele>
        <time>2021-01-23T08:11:55Z</time>
      </trkpt>
      <trkpt lat="49.10185" lon="6.67028">
        <ele>278.92</ele>
        <time>2021-01-23T08:11:57Z</time>
      </trkpt>
      <trkpt lat="49.10179" lon="6.66993">
        <ele>278.92</ele>
        <time>2021-01-23T08:12:14Z</time>
      </trkpt>
      <trkpt lat="49.1017" lon="6.6696">
        <ele>278.44</ele>
        <time>2021-01-23T08:12:30Z</time>
      </trkpt>
      <trkpt lat="49.10169" lon="6.66954">
        <ele>278.44</ele>
        <time>2021-01-23T08:12:33Z</time>
      </trkpt>
      <trkpt lat="49.10168" lon="6.66952">
        <ele>278.92</ele>
        <time>2021-01-23T08:12:34Z</time>
      </trkpt>
      <trkpt lat="49.10152" lon="6.66909">
        <ele>277</ele>
        <time>2021-01-23T08:12:55Z</time>
      </trkpt>
      <trkpt lat="49.10134" lon="6.66879">
        <ele>277</ele>
        <time>2021-01-23T08:13:13Z</time>
      </trkpt>
      <trkpt lat="49.10124" lon="6.66838">
        <ele>274.59</ele>
        <time>2021-01-23T08:13:33Z</time>
      </trkpt>
      <trkpt lat="49.10119" lon="6.66805">
        <ele>274.59</ele>
        <time>2021-01-23T08:13:50Z</time>
      </trkpt>
      <trkpt lat="49.10117" lon="6.66781">
        <ele>274.59</ele>
        <time>2021-01-23T08:14:02Z</time>
      </trkpt>
      <trkpt lat="49.10118" lon="6.66778">
        <ele>274.11</ele>
        <time>2021-01-23T08:14:03Z</time>
      </trkpt>
      <trkpt lat="49.10117" lon="6.66765">
        <ele>274.11</ele>
        <time>2021-01-23T08:14:12Z</time>
      </trkpt>
      <trkpt lat="49.10117" lon="6.66762">
        <ele>274.59</ele>
        <time>2021-01-23T08:14:14Z</time>
      </trkpt>
      <trkpt lat="49.10116" lon="6.6676">
        <ele>274.11</ele>
        <time>2021-01-23T08:14:15Z</time>
      </trkpt>
      <trkpt lat="49.10116" lon="6.66758">
        <ele>274.11</ele>
        <time>2021-01-23T08:14:16Z</time>
      </trkpt>
      <trkpt lat="49.10115" lon="6.66736">
        <ele>273.15</ele>
        <time>2021-01-23T08:14:25Z</time>
      </trkpt>
      <trkpt lat="49.10114" lon="6.66731">
        <ele>274.11</ele>
        <time>2021-01-23T08:14:26Z</time>
      </trkpt>
      <trkpt lat="49.10103" lon="6.66711">
        <ele>274.11</ele>
        <time>2021-01-23T08:14:36Z</time>
      </trkpt>
      <trkpt lat="49.10084" lon="6.66695">
        <ele>274.11</ele>
        <time>2021-01-23T08:14:51Z</time>
      </trkpt>
      <trkpt lat="49.10079" lon="6.66694">
        <ele>275.07</ele>
        <time>2021-01-23T08:14:54Z</time>
      </trkpt>
      <trkpt lat="49.10078" lon="6.66693">
        <ele>273.63</ele>
        <time>2021-01-23T08:14:55Z</time>
      </trkpt>
      <trkpt lat="49.10063" lon="6.66675">
        <ele>275.56</ele>
        <time>2021-01-23T08:15:09Z</time>
      </trkpt>
      <trkpt lat="49.10054" lon="6.66668">
        <ele>277.96</ele>
        <time>2021-01-23T08:15:18Z</time>
      </trkpt>
      <trkpt lat="49.1003" lon="6.66654">
        <ele>277</ele>
        <time>2021-01-23T08:15:36Z</time>
      </trkpt>
      <trkpt lat="49.10012" lon="6.66637">
        <ele>276.52</ele>
        <time>2021-01-23T08:15:51Z</time>
      </trkpt>
      <trkpt lat="49.10011" lon="6.66637">
        <ele>276.04</ele>
        <time>2021-01-23T08:15:52Z</time>
      </trkpt>
      <trkpt lat="49.1001" lon="6.66636">
        <ele>275.07</ele>
        <time>2021-01-23T08:15:53Z</time>
      </trkpt>
      <trkpt lat="49.09986" lon="6.66598">
        <ele>274.11</ele>
        <time>2021-01-23T08:16:16Z</time>
      </trkpt>
      <trkpt lat="49.09968" lon="6.6656">
        <ele>272.67</ele>
        <time>2021-01-23T08:16:37Z</time>
      </trkpt>
      <trkpt lat="49.09952" lon="6.6652">
        <ele>272.19</ele>
        <time>2021-01-23T08:16:58Z</time>
      </trkpt>
      <trkpt lat="49.09932" lon="6.66468">
        <ele>270.75</ele>
        <time>2021-01-23T08:17:24Z</time>
      </trkpt>
      <trkpt lat="49.09917" lon="6.66437">
        <ele>267.38</ele>
        <time>2021-01-23T08:17:41Z</time>
      </trkpt>
      <trkpt lat="49.09908" lon="6.66412">
        <ele>264.5</ele>
        <time>2021-01-23T08:17:53Z</time>
      </trkpt>
      <trkpt lat="49.09888" lon="6.66369">
        <ele>261.62</ele>
        <time>2021-01-23T08:18:16Z</time>
      </trkpt>
      <trkpt lat="49.09871" lon="6.66337">
        <ele>260.65</ele>
        <time>2021-01-23T08:18:35Z</time>
      </trkpt>
      <trkpt lat="49.0986" lon="6.66301">
        <ele>259.69</ele>
        <time>2021-01-23T08:18:53Z</time>
      </trkpt>
      <trkpt lat="49.09842" lon="6.66262">
        <ele>259.69</ele>
        <time>2021-01-23T08:19:13Z</time>
      </trkpt>
      <trkpt lat="49.09819" lon="6.66254">
        <ele>257.29</ele>
        <time>2021-01-23T08:19:29Z</time>
      </trkpt>
      <trkpt lat="49.09783" lon="6.66259">
        <ele>254.89</ele>
        <time>2021-01-23T08:19:52Z</time>
      </trkpt>
      <trkpt lat="49.09756" lon="6.66267">
        <ele>254.89</ele>
        <time>2021-01-23T08:20:10Z</time>
      </trkpt>
      <trkpt lat="49.09748" lon="6.66271">
        <ele>254.89</ele>
        <time>2021-01-23T08:20:16Z</time>
      </trkpt>
      <trkpt lat="49.0973" lon="6.66277">
        <ele>256.81</ele>
        <time>2021-01-23T08:20:30Z</time>
      </trkpt>
      <trkpt lat="49.09728" lon="6.66281">
        <ele>257.29</ele>
        <time>2021-01-23T08:20:33Z</time>
      </trkpt>
      <trkpt lat="49.0972" lon="6.66317">
        <ele>257.29</ele>
        <time>2021-01-23T08:20:51Z</time>
      </trkpt>
      <trkpt lat="49.09715" lon="6.66336">
        <ele>256.81</ele>
        <time>2021-01-23T08:21:03Z</time>
      </trkpt>
      <trkpt lat="49.09701" lon="6.66369">
        <ele>256.81</ele>
        <time>2021-01-23T08:21:21Z</time>
      </trkpt>
      <trkpt lat="49.09691" lon="6.66401">
        <ele>257.29</ele>
        <time>2021-01-23T08:21:38Z</time>
      </trkpt>
      <trkpt lat="49.09689" lon="6.66405">
        <ele>257.77</ele>
        <time>2021-01-23T08:21:40Z</time>
      </trkpt>
      <trkpt lat="49.09674" lon="6.66439">
        <ele>258.73</ele>
        <time>2021-01-23T08:21:59Z</time>
      </trkpt>
      <trkpt lat="49.09658" lon="6.66458">
        <ele>259.21</ele>
        <time>2021-01-23T08:22:12Z</time>
      </trkpt>
      <trkpt lat="49.0964" lon="6.66476">
        <ele>259.69</ele>
        <time>2021-01-23T08:22:27Z</time>
      </trkpt>
      <trkpt lat="49.09612" lon="6.66489">
        <ele>261.14</ele>
        <time>2021-01-23T08:22:48Z</time>
      </trkpt>
      <trkpt lat="49.0959" lon="6.66499">
        <ele>264.5</ele>
        <time>2021-01-23T08:23:04Z</time>
      </trkpt>
      <trkpt lat="49.09567" lon="6.66502">
        <ele>266.42</ele>
        <time>2021-01-23T08:23:23Z</time>
      </trkpt>
      <trkpt lat="49.0956" lon="6.66513">
        <ele>268.35</ele>
        <time>2021-01-23T08:23:34Z</time>
      </trkpt>
      <trkpt lat="49.09559" lon="6.66515">
        <ele>267.86</ele>
        <time>2021-01-23T08:23:35Z</time>
      </trkpt>
      <trkpt lat="49.09555" lon="6.66532">
        <ele>269.31</ele>
        <time>2021-01-23T08:23:43Z</time>
      </trkpt>
      <trkpt lat="49.09555" lon="6.66537">
        <ele>268.83</ele>
        <time>2021-01-23T08:23:45Z</time>
      </trkpt>
      <trkpt lat="49.09561" lon="6.66573">
        <ele>268.35</ele>
        <time>2021-01-23T08:24:03Z</time>
      </trkpt>
      <trkpt lat="49.09568" lon="6.66603">
        <ele>266.9</ele>
        <time>2021-01-23T08:24:20Z</time>
      </trkpt>
      <trkpt lat="49.09572" lon="6.66626">
        <ele>268.35</ele>
        <time>2021-01-23T08:24:33Z</time>
      </trkpt>
      <trkpt lat="49.09591" lon="6.66658">
        <ele>270.27</ele>
        <time>2021-01-23T08:24:51Z</time>
      </trkpt>
      <trkpt lat="49.09591" lon="6.6666">
        <ele>269.79</ele>
        <time>2021-01-23T08:24:52Z</time>
      </trkpt>
      <trkpt lat="49.09598" lon="6.66669">
        <ele>271.23</ele>
        <time>2021-01-23T08:24:59Z</time>
      </trkpt>
      <trkpt lat="49.09602" lon="6.66676">
        <ele>271.23</ele>
        <time>2021-01-23T08:25:04Z</time>
      </trkpt>
      <trkpt lat="49.09616" lon="6.66693">
        <ele>273.15</ele>
        <time>2021-01-23T08:25:17Z</time>
      </trkpt>
      <trkpt lat="49.09639" lon="6.66714">
        <ele>276.04</ele>
        <time>2021-01-23T08:25:30Z</time>
      </trkpt>
      <trkpt lat="49.09642" lon="6.66722">
        <ele>276.52</ele>
        <time>2021-01-23T08:25:34Z</time>
      </trkpt>
      <trkpt lat="49.09642" lon="6.66743">
        <ele>279.4</ele>
        <time>2021-01-23T08:25:46Z</time>
      </trkpt>
      <trkpt lat="49.09641" lon="6.66744">
        <ele>278.44</ele>
        <time>2021-01-23T08:25:47Z</time>
      </trkpt>
      <trkpt lat="49.09636" lon="6.66754">
        <ele>279.88</ele>
        <time>2021-01-23T08:25:52Z</time>
      </trkpt>
      <trkpt lat="49.09623" lon="6.66776">
        <ele>282.77</ele>
        <time>2021-01-23T08:26:05Z</time>
      </trkpt>
      <trkpt lat="49.09608" lon="6.66812">
        <ele>284.69</ele>
        <time>2021-01-23T08:26:25Z</time>
      </trkpt>
      <trkpt lat="49.09602" lon="6.66831">
        <ele>288.05</ele>
        <time>2021-01-23T08:26:35Z</time>
      </trkpt>
      <trkpt lat="49.09593" lon="6.66865">
        <ele>290.94</ele>
        <time>2021-01-23T08:26:52Z</time>
      </trkpt>
      <trkpt lat="49.09585" lon="6.66896">
        <ele>293.82</ele>
        <time>2021-01-23T08:27:08Z</time>
      </trkpt>
      <trkpt lat="49.09579" lon="6.66926">
        <ele>297.18</ele>
        <time>2021-01-23T08:27:24Z</time>
      </trkpt>
      <trkpt lat="49.0957" lon="6.66956">
        <ele>300.55</ele>
        <time>2021-01-23T08:27:40Z</time>
      </trkpt>
      <trkpt lat="49.09555" lon="6.66996">
        <ele>301.99</ele>
        <time>2021-01-23T08:28:00Z</time>
      </trkpt>
      <trkpt lat="49.09545" lon="6.67032">
        <ele>303.43</ele>
        <time>2021-01-23T08:28:17Z</time>
      </trkpt>
      <trkpt lat="49.09536" lon="6.67066">
        <ele>305.36</ele>
        <time>2021-01-23T08:28:34Z</time>
      </trkpt>
      <trkpt lat="49.09522" lon="6.67094">
        <ele>307.28</ele>
        <time>2021-01-23T08:28:49Z</time>
      </trkpt>
      <trkpt lat="49.09498" lon="6.67117">
        <ele>309.68</ele>
        <time>2021-01-23T08:29:08Z</time>
      </trkpt>
      <trkpt lat="49.09482" lon="6.6713">
        <ele>310.64</ele>
        <time>2021-01-23T08:29:21Z</time>
      </trkpt>
      <trkpt lat="49.09481" lon="6.67133">
        <ele>312.57</ele>
        <time>2021-01-23T08:29:24Z</time>
      </trkpt>
      <trkpt lat="49.09481" lon="6.67133">
        <ele>312.57</ele>
        <time>2021-01-23T08:29:26Z</time>
      </trkpt>
      <trkpt lat="49.09471" lon="6.67146">
        <ele>313.05</ele>
        <time>2021-01-23T08:29:36Z</time>
      </trkpt>
      <trkpt lat="49.09457" lon="6.67181">
        <ele>315.93</ele>
        <time>2021-01-23T08:29:54Z</time>
      </trkpt>
      <trkpt lat="49.09455" lon="6.67186">
        <ele>315.45</ele>
        <time>2021-01-23T08:29:58Z</time>
      </trkpt>
      <trkpt lat="49.0945" lon="6.67227">
        <ele>318.33</ele>
        <time>2021-01-23T08:30:16Z</time>
      </trkpt>
      <trkpt lat="49.09444" lon="6.67264">
        <ele>320.74</ele>
        <time>2021-01-23T08:30:33Z</time>
      </trkpt>
      <trkpt lat="49.09432" lon="6.67307">
        <ele>322.18</ele>
        <time>2021-01-23T08:30:53Z</time>
      </trkpt>
      <trkpt lat="49.0942" lon="6.6735">
        <ele>325.54</ele>
        <time>2021-01-23T08:31:14Z</time>
      </trkpt>
      <trkpt lat="49.09406" lon="6.67375">
        <ele>327.95</ele>
        <time>2021-01-23T08:31:29Z</time>
      </trkpt>
      <trkpt lat="49.09402" lon="6.67386">
        <ele>328.91</ele>
        <time>2021-01-23T08:31:35Z</time>
      </trkpt>
      <trkpt lat="49.0939" lon="6.67418">
        <ele>331.31</ele>
        <time>2021-01-23T08:31:53Z</time>
      </trkpt>
      <trkpt lat="49.09389" lon="6.67424">
        <ele>330.35</ele>
        <time>2021-01-23T08:31:56Z</time>
      </trkpt>
      <trkpt lat="49.09388" lon="6.67432">
        <ele>331.31</ele>
        <time>2021-01-23T08:32:00Z</time>
      </trkpt>
      <trkpt lat="49.09392" lon="6.67486">
        <ele>331.31</ele>
        <time>2021-01-23T08:32:22Z</time>
      </trkpt>
      <trkpt lat="49.09393" lon="6.6753">
        <ele>329.39</ele>
        <time>2021-01-23T08:32:42Z</time>
      </trkpt>
      <trkpt lat="49.09396" lon="6.67557">
        <ele>329.39</ele>
        <time>2021-01-23T08:32:55Z</time>
      </trkpt>
      <trkpt lat="49.09399" lon="6.67583">
        <ele>329.39</ele>
        <time>2021-01-23T08:33:08Z</time>
      </trkpt>
      <trkpt lat="49.09399" lon="6.67587">
        <ele>329.87</ele>
        <time>2021-01-23T08:33:10Z</time>
      </trkpt>
      <trkpt lat="49.09404" lon="6.67621">
        <ele>329.87</ele>
        <time>2021-01-23T08:33:24Z</time>
      </trkpt>
      <trkpt lat="49.09407" lon="6.67631">
        <ele>328.91</ele>
        <time>2021-01-23T08:33:29Z</time>
      </trkpt>
      <trkpt lat="49.09407" lon="6.67639">
        <ele>329.39</ele>
        <time>2021-01-23T08:33:33Z</time>
      </trkpt>
      <trkpt lat="49.09409" lon="6.67664">
        <ele>328.91</ele>
        <time>2021-01-23T08:33:45Z</time>
      </trkpt>
      <trkpt lat="49.09411" lon="6.67677">
        <ele>329.39</ele>
        <time>2021-01-23T08:33:51Z</time>
      </trkpt>
      <trkpt lat="49.09416" lon="6.6771">
        <ele>328.91</ele>
        <time>2021-01-23T08:34:07Z</time>
      </trkpt>
      <trkpt lat="49.09417" lon="6.67719">
        <ele>329.39</ele>
        <time>2021-01-23T08:34:11Z</time>
      </trkpt>
      <trkpt lat="49.0942" lon="6.67738">
        <ele>329.39</ele>
        <time>2021-01-23T08:34:20Z</time>
      </trkpt>
      <trkpt lat="49.09423" lon="6.67749">
        <ele>329.39</ele>
        <time>2021-01-23T08:34:24Z</time>
      </trkpt>
      <trkpt lat="49.09432" lon="6.67787">
        <ele>330.35</ele>
        <time>2021-01-23T08:34:41Z</time>
      </trkpt>
      <trkpt lat="49.09443" lon="6.67828">
        <ele>328.91</ele>
        <time>2021-01-23T08:34:59Z</time>
      </trkpt>
      <trkpt lat="49.09452" lon="6.67866">
        <ele>328.43</ele>
        <time>2021-01-23T08:35:17Z</time>
      </trkpt>
      <trkpt lat="49.09465" lon="6.67899">
        <ele>327.95</ele>
        <time>2021-01-23T08:35:35Z</time>
      </trkpt>
      <trkpt lat="49.09481" lon="6.67926">
        <ele>327.47</ele>
        <time>2021-01-23T08:35:51Z</time>
      </trkpt>
      <trkpt lat="49.09498" lon="6.67969">
        <ele>326.99</ele>
        <time>2021-01-23T08:36:12Z</time>
      </trkpt>
      <trkpt lat="49.09507" lon="6.68001">
        <ele>327.95</ele>
        <time>2021-01-23T08:36:28Z</time>
      </trkpt>
      <trkpt lat="49.0952" lon="6.68037">
        <ele>328.43</ele>
        <time>2021-01-23T08:36:46Z</time>
      </trkpt>
      <trkpt lat="49.09534" lon="6.68085">
        <ele>327.47</ele>
        <time>2021-01-23T08:37:09Z</time>
      </trkpt>
      <trkpt lat="49.09544" lon="6.68122">
        <ele>326.99</ele>
        <time>2021-01-23T08:37:27Z</time>
      </trkpt>
      <trkpt lat="49.09554" lon="6.68152">
        <ele>325.54</ele>
        <time>2021-01-23T08:37:41Z</time>
      </trkpt>
      <trkpt lat="49.09563" lon="6.68196">
        <ele>326.5</ele>
        <time>2021-01-23T08:38:01Z</time>
      </trkpt>
      <trkpt lat="49.09562" lon="6.68211">
        <ele>326.5</ele>
        <time>2021-01-23T08:38:08Z</time>
      </trkpt>
      <trkpt lat="49.09557" lon="6.68234">
        <ele>328.43</ele>
        <time>2021-01-23T08:38:21Z</time>
      </trkpt>
      <trkpt lat="49.0955" lon="6.68258">
        <ele>330.83</ele>
        <time>2021-01-23T08:38:34Z</time>
      </trkpt>
      <trkpt lat="49.0954" lon="6.68282">
        <ele>332.27</ele>
        <time>2021-01-23T08:38:47Z</time>
      </trkpt>
      <trkpt lat="49.09533" lon="6.68301">
        <ele>335.16</ele>
        <time>2021-01-23T08:38:57Z</time>
      </trkpt>
      <trkpt lat="49.09533" lon="6.68305">
        <ele>335.64</ele>
        <time>2021-01-23T08:38:59Z</time>
      </trkpt>
      <trkpt lat="49.09532" lon="6.68307">
        <ele>335.64</ele>
        <time>2021-01-23T08:39:00Z</time>
      </trkpt>
      <trkpt lat="49.09528" lon="6.68325">
        <ele>336.6</ele>
        <time>2021-01-23T08:39:15Z</time>
      </trkpt>
      <trkpt lat="49.09528" lon="6.68329">
        <ele>337.56</ele>
        <time>2021-01-23T08:39:35Z</time>
      </trkpt>
      <trkpt lat="49.09529" lon="6.68343">
        <ele>338.04</ele>
        <time>2021-01-23T08:39:52Z</time>
      </trkpt>
      <trkpt lat="49.09529" lon="6.68355">
        <ele>339.48</ele>
        <time>2021-01-23T08:40:06Z</time>
      </trkpt>
      <trkpt lat="49.09525" lon="6.68375">
        <ele>339.48</ele>
        <time>2021-01-23T08:40:18Z</time>
      </trkpt>
      <trkpt lat="49.09521" lon="6.68391">
        <ele>341.89</ele>
        <time>2021-01-23T08:40:27Z</time>
      </trkpt>
      <trkpt lat="49.09512" lon="6.68418">
        <ele>344.29</ele>
        <time>2021-01-23T08:40:43Z</time>
      </trkpt>
      <trkpt lat="49.09506" lon="6.68433">
        <ele>346.21</ele>
        <time>2021-01-23T08:40:52Z</time>
      </trkpt>
      <trkpt lat="49.09493" lon="6.6846">
        <ele>349.1</ele>
        <time>2021-01-23T08:41:08Z</time>
      </trkpt>
      <trkpt lat="49.09478" lon="6.68481">
        <ele>352.46</ele>
        <time>2021-01-23T08:41:26Z</time>
      </trkpt>
      <trkpt lat="49.09464" lon="6.68494">
        <ele>353.9</ele>
        <time>2021-01-23T08:41:38Z</time>
      </trkpt>
      <trkpt lat="49.09449" lon="6.68507">
        <ele>354.86</ele>
        <time>2021-01-23T08:41:53Z</time>
      </trkpt>
      <trkpt lat="49.09429" lon="6.68532">
        <ele>353.9</ele>
        <time>2021-01-23T08:42:10Z</time>
      </trkpt>
      <trkpt lat="49.09411" lon="6.68555">
        <ele>351.5</ele>
        <time>2021-01-23T08:42:28Z</time>
      </trkpt>
      <trkpt lat="49.09398" lon="6.68572">
        <ele>348.62</ele>
        <time>2021-01-23T08:42:41Z</time>
      </trkpt>
      <trkpt lat="49.09382" lon="6.68599">
        <ele>345.25</ele>
        <time>2021-01-23T08:42:56Z</time>
      </trkpt>
      <trkpt lat="49.09361" lon="6.68631">
        <ele>343.81</ele>
        <time>2021-01-23T08:43:13Z</time>
      </trkpt>
      <trkpt lat="49.09335" lon="6.68668">
        <ele>340.92</ele>
        <time>2021-01-23T08:43:31Z</time>
      </trkpt>
      <trkpt lat="49.09312" lon="6.68687">
        <ele>340.92</ele>
        <time>2021-01-23T08:43:48Z</time>
      </trkpt>
      <trkpt lat="49.0929" lon="6.68704">
        <ele>338.04</ele>
        <time>2021-01-23T08:44:03Z</time>
      </trkpt>
      <trkpt lat="49.09268" lon="6.68727">
        <ele>337.08</ele>
        <time>2021-01-23T08:44:20Z</time>
      </trkpt>
      <trkpt lat="49.09249" lon="6.68753">
        <ele>334.2</ele>
        <time>2021-01-23T08:44:36Z</time>
      </trkpt>
      <trkpt lat="49.09229" lon="6.6878">
        <ele>332.27</ele>
        <time>2021-01-23T08:44:53Z</time>
      </trkpt>
      <trkpt lat="49.09206" lon="6.68811">
        <ele>331.31</ele>
        <time>2021-01-23T08:45:12Z</time>
      </trkpt>
      <trkpt lat="49.09188" lon="6.6883">
        <ele>328.43</ele>
        <time>2021-01-23T08:45:25Z</time>
      </trkpt>
      <trkpt lat="49.09159" lon="6.68849">
        <ele>326.02</ele>
        <time>2021-01-23T08:45:45Z</time>
      </trkpt>
      <trkpt lat="49.09154" lon="6.68851">
        <ele>326.99</ele>
        <time>2021-01-23T08:46:01Z</time>
      </trkpt>
      <trkpt lat="49.09141" lon="6.68861">
        <ele>325.06</ele>
        <time>2021-01-23T08:46:29Z</time>
      </trkpt>
      <trkpt lat="49.09118" lon="6.68883">
        <ele>323.14</ele>
        <time>2021-01-23T08:46:48Z</time>
      </trkpt>
      <trkpt lat="49.09088" lon="6.68906">
        <ele>321.22</ele>
        <time>2021-01-23T08:47:11Z</time>
      </trkpt>
      <trkpt lat="49.09067" lon="6.68938">
        <ele>318.33</ele>
        <time>2021-01-23T08:47:31Z</time>
      </trkpt>
      <trkpt lat="49.09046" lon="6.68972">
        <ele>314.97</ele>
        <time>2021-01-23T08:47:52Z</time>
      </trkpt>
      <trkpt lat="49.09027" lon="6.68994">
        <ele>314.01</ele>
        <time>2021-01-23T08:48:08Z</time>
      </trkpt>
      <trkpt lat="49.09024" lon="6.68997">
        <ele>313.53</ele>
        <time>2021-01-23T08:48:13Z</time>
      </trkpt>
      <trkpt lat="49.09006" lon="6.69034">
        <ele>312.09</ele>
        <time>2021-01-23T08:48:30Z</time>
      </trkpt>
      <trkpt lat="49.08992" lon="6.69056">
        <ele>310.64</ele>
        <time>2021-01-23T08:48:50Z</time>
      </trkpt>
      <trkpt lat="49.08991" lon="6.69059">
        <ele>310.64</ele>
        <time>2021-01-23T08:49:06Z</time>
      </trkpt>
      <trkpt lat="49.08991" lon="6.69061">
        <ele>309.2</ele>
        <time>2021-01-23T08:49:14Z</time>
      </trkpt>
      <trkpt lat="49.0899" lon="6.6906">
        <ele>310.64</ele>
        <time>2021-01-23T08:49:17Z</time>
      </trkpt>
      <trkpt lat="49.0898" lon="6.69074">
        <ele>309.2</ele>
        <time>2021-01-23T08:49:33Z</time>
      </trkpt>
      <trkpt lat="49.08968" lon="6.69092">
        <ele>307.28</ele>
        <time>2021-01-23T08:49:49Z</time>
      </trkpt>
      <trkpt lat="49.08946" lon="6.69119">
        <ele>305.36</ele>
        <time>2021-01-23T08:50:11Z</time>
      </trkpt>
      <trkpt lat="49.08932" lon="6.69133">
        <ele>303.43</ele>
        <time>2021-01-23T08:50:25Z</time>
      </trkpt>
      <trkpt lat="49.08909" lon="6.69158">
        <ele>300.55</ele>
        <time>2021-01-23T08:50:46Z</time>
      </trkpt>
      <trkpt lat="49.08904" lon="6.69162">
        <ele>300.55</ele>
        <time>2021-01-23T08:50:59Z</time>
      </trkpt>
      <trkpt lat="49.08904" lon="6.69161">
        <ele>301.03</ele>
        <time>2021-01-23T08:51:18Z</time>
      </trkpt>
      <trkpt lat="49.08902" lon="6.69163">
        <ele>301.03</ele>
        <time>2021-01-23T08:51:20Z</time>
      </trkpt>
      <trkpt lat="49.08881" lon="6.6919">
        <ele>298.15</ele>
        <time>2021-01-23T08:51:38Z</time>
      </trkpt>
      <trkpt lat="49.08857" lon="6.69211">
        <ele>295.74</ele>
        <time>2021-01-23T08:51:55Z</time>
      </trkpt>
      <trkpt lat="49.08832" lon="6.69237">
        <ele>293.82</ele>
        <time>2021-01-23T08:52:14Z</time>
      </trkpt>
      <trkpt lat="49.08808" lon="6.69261">
        <ele>291.42</ele>
        <time>2021-01-23T08:52:32Z</time>
      </trkpt>
      <trkpt lat="49.08788" lon="6.69272">
        <ele>290.46</ele>
        <time>2021-01-23T08:52:45Z</time>
      </trkpt>
      <trkpt lat="49.08757" lon="6.69306">
        <ele>289.97</ele>
        <time>2021-01-23T08:53:09Z</time>
      </trkpt>
      <trkpt lat="49.08734" lon="6.69338">
        <ele>289.49</ele>
        <time>2021-01-23T08:53:29Z</time>
      </trkpt>
      <trkpt lat="49.08717" lon="6.69363">
        <ele>288.53</ele>
        <time>2021-01-23T08:53:48Z</time>
      </trkpt>
    </trkseg>
  </trk>
</gpx>